<?xml version='1.0' encoding='UTF-8'?><gpx version="1.1" creator="JPX - https://github.com/jenetics/jpx" xmlns="http://www.topografix.com/GPX/1/1"><trk><trkseg><trkpt lat="45.7087604" lon="9.6832566"><ele>270.0</ele><time>2026-03-26T13:58:43.252Z</time></trkpt><trkpt lat="45.7088076" lon="9.6831916"><ele>270.0</ele><time>2026-03-26T13:58:49.252Z</time></trkpt><trkpt lat="45.7088781" lon="9.6831607"><ele>270.0</ele><time>2026-03-26T13:58:52.266Z</time></trkpt><trkpt lat="45.7089336" lon="9.6831039"><ele>270.0</ele><time>2026-03-26T13:58:56.157Z</time></trkpt><trkpt lat="45.7089865" lon="9.6830369"><ele>270.0</ele><time>2026-03-26T13:59:01Z</time></trkpt><trkpt lat="45.7090434" lon="9.6829742"><ele>270.0</ele><time>2026-03-26T13:59:05.9Z</time></trkpt><trkpt lat="45.7091066" lon="9.6829163"><ele>270.0</ele><time>2026-03-26T13:59:11.26Z</time></trkpt><trkpt lat="45.7091669" lon="9.6828602"><ele>270.0</ele><time>2026-03-26T13:59:16.2Z</time></trkpt><trkpt lat="45.7092285" lon="9.6828053"><ele>270.0</ele><time>2026-03-26T13:59:21.101Z</time></trkpt><trkpt lat="45.7092897" lon="9.6827399"><ele>270.0</ele><time>2026-03-26T13:59:26.934Z</time></trkpt><trkpt lat="45.7093429" lon="9.6826809"><ele>270.0</ele><time>2026-03-26T13:59:31.817Z</time></trkpt><trkpt lat="45.709406" lon="9.6826114"><ele>270.0</ele><time>2026-03-26T13:59:37.712Z</time></trkpt><trkpt lat="45.7094585" lon="9.6825615"><ele>270.0</ele><time>2026-03-26T13:59:42.611Z</time></trkpt><trkpt lat="45.7095192" lon="9.6825063"><ele>270.0</ele><time>2026-03-26T13:59:47.572Z</time></trkpt><trkpt lat="45.709576" lon="9.6824541"><ele>270.1428571428571</ele><time>2026-03-26T13:59:51.635Z</time></trkpt><trkpt lat="45.7095687" lon="9.6823612"><ele>270.2857142857143</ele><time>2026-03-26T13:59:56.818Z</time></trkpt><trkpt lat="45.7095126" lon="9.6823001"><ele>270.42857142857144</ele><time>2026-03-26T14:00:01.933Z</time></trkpt><trkpt lat="45.7094341" lon="9.6822455"><ele>270.57142857142856</ele><time>2026-03-26T14:00:07.002Z</time></trkpt><trkpt lat="45.70937" lon="9.6821936"><ele>270.7142857142857</ele><time>2026-03-26T14:00:11.256Z</time></trkpt><trkpt lat="45.709311" lon="9.6821306"><ele>270.85714285714283</ele><time>2026-03-26T14:00:17.113Z</time></trkpt><trkpt lat="45.709242" lon="9.682105"><ele>271.0</ele><time>2026-03-26T14:00:21.179Z</time></trkpt><trkpt lat="45.7091724" lon="9.6820798"><ele>270.7142857142857</ele><time>2026-03-26T14:00:25.154Z</time></trkpt><trkpt lat="45.7091659" lon="9.6819773"><ele>270.42857142857144</ele><time>2026-03-26T14:00:30.014Z</time></trkpt><trkpt lat="45.7091048" lon="9.6819217"><ele>270.14285714285717</ele><time>2026-03-26T14:00:36.951Z</time></trkpt><trkpt lat="45.7090661" lon="9.6818364"><ele>269.8571428571429</ele><time>2026-03-26T14:00:42.955Z</time></trkpt><trkpt lat="45.7089981" lon="9.6817939"><ele>269.5714285714286</ele><time>2026-03-26T14:00:48.879Z</time></trkpt><trkpt lat="45.7089342" lon="9.6817525"><ele>269.2857142857143</ele><time>2026-03-26T14:00:53.741Z</time></trkpt><trkpt lat="45.7088675" lon="9.681709"><ele>269.0</ele><time>2026-03-26T14:00:58.095Z</time></trkpt><trkpt lat="45.7087946" lon="9.6816582"><ele>268.57142857142856</ele><time>2026-03-26T14:01:02.92Z</time></trkpt><trkpt lat="45.7087384" lon="9.681616"><ele>268.14285714285717</ele><time>2026-03-26T14:01:06.819Z</time></trkpt><trkpt lat="45.7086811" lon="9.681573"><ele>267.7142857142857</ele><time>2026-03-26T14:01:10.733Z</time></trkpt><trkpt lat="45.7086133" lon="9.6815205"><ele>267.2857142857143</ele><time>2026-03-26T14:01:15.631Z</time></trkpt><trkpt lat="45.7085566" lon="9.681477"><ele>266.8571428571429</ele><time>2026-03-26T14:01:19.621Z</time></trkpt><trkpt lat="45.708496" lon="9.681428"><ele>266.42857142857144</ele><time>2026-03-26T14:01:23.897Z</time></trkpt><trkpt lat="45.7084345" lon="9.68137"><ele>266.0</ele><time>2026-03-26T14:01:28.633Z</time></trkpt><trkpt lat="45.7083794" lon="9.6813185"><ele>266.0</ele><time>2026-03-26T14:01:32.638Z</time></trkpt><trkpt lat="45.7083246" lon="9.6812601"><ele>266.0</ele><time>2026-03-26T14:01:36.613Z</time></trkpt><trkpt lat="45.7082669" lon="9.6812053"><ele>266.0</ele><time>2026-03-26T14:01:41.455Z</time></trkpt><trkpt lat="45.708208" lon="9.6811547"><ele>266.0</ele><time>2026-03-26T14:01:46.395Z</time></trkpt><trkpt lat="45.7081499" lon="9.6810955"><ele>266.0</ele><time>2026-03-26T14:01:51.433Z</time></trkpt><trkpt lat="45.7080911" lon="9.6810245"><ele>266.0</ele><time>2026-03-26T14:01:56.353Z</time></trkpt><trkpt lat="45.7080448" lon="9.6809616"><ele>266.0</ele><time>2026-03-26T14:02:01.25Z</time></trkpt><trkpt lat="45.7079979" lon="9.6808939"><ele>265.85714285714283</ele><time>2026-03-26T14:02:06.175Z</time></trkpt><trkpt lat="45.7079263" lon="9.680836"><ele>265.7142857142857</ele><time>2026-03-26T14:02:11.135Z</time></trkpt><trkpt lat="45.7078717" lon="9.6807861"><ele>265.57142857142856</ele><time>2026-03-26T14:02:16.037Z</time></trkpt><trkpt lat="45.7078208" lon="9.6807196"><ele>265.42857142857144</ele><time>2026-03-26T14:02:21.268Z</time></trkpt><trkpt lat="45.7077562" lon="9.6806712"><ele>265.2857142857143</ele><time>2026-03-26T14:02:26.258Z</time></trkpt><trkpt lat="45.707737" lon="9.6805817"><ele>265.1428571428571</ele><time>2026-03-26T14:02:39.254Z</time></trkpt><trkpt lat="45.707677" lon="9.6805459"><ele>265.0</ele><time>2026-03-26T14:02:42.219Z</time></trkpt><trkpt lat="45.7076134" lon="9.6805068"><ele>265.1428571428571</ele><time>2026-03-26T14:02:47.18Z</time></trkpt><trkpt lat="45.7075914" lon="9.6804192"><ele>265.2857142857143</ele><time>2026-03-26T14:02:53.912Z</time></trkpt><trkpt lat="45.7076393" lon="9.6803596"><ele>265.42857142857144</ele><time>2026-03-26T14:03:00.26Z</time></trkpt><trkpt lat="45.7075713" lon="9.6803221"><ele>265.57142857142856</ele><time>2026-03-26T14:03:11.236Z</time></trkpt><trkpt lat="45.7075186" lon="9.6802499"><ele>265.7142857142857</ele><time>2026-03-26T14:03:16.263Z</time></trkpt><trkpt lat="45.7074449" lon="9.6802369"><ele>265.85714285714283</ele><time>2026-03-26T14:03:21.1Z</time></trkpt><trkpt lat="45.7073751" lon="9.6802308"><ele>266.0</ele><time>2026-03-26T14:03:25.257Z</time></trkpt><trkpt lat="45.7073039" lon="9.6802047"><ele>266.0</ele><time>2026-03-26T14:03:29.258Z</time></trkpt><trkpt lat="45.7072322" lon="9.6801593"><ele>266.0</ele><time>2026-03-26T14:03:34.215Z</time></trkpt><trkpt lat="45.7071643" lon="9.6801087"><ele>266.0</ele><time>2026-03-26T14:03:39.26Z</time></trkpt><trkpt lat="45.7070984" lon="9.6800595"><ele>266.0</ele><time>2026-03-26T14:03:44.256Z</time></trkpt><trkpt lat="45.7070341" lon="9.6800023"><ele>266.0</ele><time>2026-03-26T14:03:49.131Z</time></trkpt><trkpt lat="45.7069759" lon="9.6799559"><ele>266.0</ele><time>2026-03-26T14:03:54.034Z</time></trkpt><trkpt lat="45.7069184" lon="9.6799138"><ele>266.0</ele><time>2026-03-26T14:03:57.872Z</time></trkpt><trkpt lat="45.7068572" lon="9.6798686"><ele>265.7142857142857</ele><time>2026-03-26T14:04:02.7Z</time></trkpt><trkpt lat="45.7067982" lon="9.6798253"><ele>265.42857142857144</ele><time>2026-03-26T14:04:06.739Z</time></trkpt><trkpt lat="45.7067309" lon="9.6797823"><ele>265.1428571428571</ele><time>2026-03-26T14:04:11.26Z</time></trkpt><trkpt lat="45.7066666" lon="9.6797343"><ele>264.8571428571429</ele><time>2026-03-26T14:04:17.252Z</time></trkpt><trkpt lat="45.706601" lon="9.679677"><ele>264.57142857142856</ele><time>2026-03-26T14:04:22.253Z</time></trkpt><trkpt lat="45.7065421" lon="9.67962"><ele>264.2857142857143</ele><time>2026-03-26T14:04:27.136Z</time></trkpt><trkpt lat="45.7064748" lon="9.6795642"><ele>264.0</ele><time>2026-03-26T14:04:32.255Z</time></trkpt><trkpt lat="45.7064179" lon="9.6795188"><ele>264.0</ele><time>2026-03-26T14:04:36.254Z</time></trkpt><trkpt lat="45.7063467" lon="9.6794588"><ele>264.0</ele><time>2026-03-26T14:04:41.255Z</time></trkpt><trkpt lat="45.7062856" lon="9.6794141"><ele>264.0</ele><time>2026-03-26T14:04:46.174Z</time></trkpt><trkpt lat="45.7062237" lon="9.6793645"><ele>264.0</ele><time>2026-03-26T14:04:51.136Z</time></trkpt><trkpt lat="45.7061688" lon="9.6793104"><ele>264.0</ele><time>2026-03-26T14:04:56.045Z</time></trkpt><trkpt lat="45.7061119" lon="9.6792613"><ele>264.0</ele><time>2026-03-26T14:05:00.88Z</time></trkpt><trkpt lat="45.7060532" lon="9.6792087"><ele>264.0</ele><time>2026-03-26T14:05:05.733Z</time></trkpt><trkpt lat="45.7059936" lon="9.6791536"><ele>264.0</ele><time>2026-03-26T14:05:10.673Z</time></trkpt><trkpt lat="45.7059328" lon="9.6791051"><ele>264.0</ele><time>2026-03-26T14:05:16.014Z</time></trkpt><trkpt lat="45.7058764" lon="9.679044"><ele>264.0</ele><time>2026-03-26T14:05:20.876Z</time></trkpt><trkpt lat="45.7058155" lon="9.6789828"><ele>264.0</ele><time>2026-03-26T14:05:26.771Z</time></trkpt><trkpt lat="45.705757" lon="9.6789319"><ele>264.0</ele><time>2026-03-26T14:05:31.692Z</time></trkpt><trkpt lat="45.7057005" lon="9.6788845"><ele>264.0</ele><time>2026-03-26T14:05:36.653Z</time></trkpt><trkpt lat="45.7056454" lon="9.6788405"><ele>264.0</ele><time>2026-03-26T14:05:41.476Z</time></trkpt><trkpt lat="45.7055858" lon="9.6787957"><ele>264.0</ele><time>2026-03-26T14:05:46.382Z</time></trkpt><trkpt lat="45.7055231" lon="9.6787338"><ele>264.0</ele><time>2026-03-26T14:05:52.272Z</time></trkpt><trkpt lat="45.7054684" lon="9.6786876"><ele>264.0</ele><time>2026-03-26T14:05:57.135Z</time></trkpt><trkpt lat="45.7054052" lon="9.6786359"><ele>264.0</ele><time>2026-03-26T14:06:02.074Z</time></trkpt><trkpt lat="45.7053378" lon="9.6785787"><ele>264.0</ele><time>2026-03-26T14:06:06.981Z</time></trkpt><trkpt lat="45.7052719" lon="9.6785278"><ele>264.0</ele><time>2026-03-26T14:06:12.891Z</time></trkpt><trkpt lat="45.7052108" lon="9.67848"><ele>264.0</ele><time>2026-03-26T14:06:17.813Z</time></trkpt><trkpt lat="45.7051563" lon="9.6784342"><ele>263.85714285714283</ele><time>2026-03-26T14:06:22.636Z</time></trkpt><trkpt lat="45.7050831" lon="9.6783742"><ele>263.7142857142857</ele><time>2026-03-26T14:06:28.037Z</time></trkpt><trkpt lat="45.7050204" lon="9.6783228"><ele>263.57142857142856</ele><time>2026-03-26T14:06:32.957Z</time></trkpt><trkpt lat="45.7049585" lon="9.6782718"><ele>263.42857142857144</ele><time>2026-03-26T14:06:37.265Z</time></trkpt><trkpt lat="45.7048992" lon="9.6782154"><ele>263.2857142857143</ele><time>2026-03-26T14:06:42.253Z</time></trkpt><trkpt lat="45.704836" lon="9.6781555"><ele>263.1428571428571</ele><time>2026-03-26T14:06:47.253Z</time></trkpt><trkpt lat="45.704775" lon="9.678106"><ele>263.0</ele><time>2026-03-26T14:06:52.259Z</time></trkpt><trkpt lat="45.7047108" lon="9.6780332"><ele>263.0</ele><time>2026-03-26T14:06:57.134Z</time></trkpt><trkpt lat="45.7046546" lon="9.6779804"><ele>263.0</ele><time>2026-03-26T14:07:01.035Z</time></trkpt><trkpt lat="45.704592" lon="9.6779427"><ele>263.0</ele><time>2026-03-26T14:07:04.92Z</time></trkpt><trkpt lat="45.704532" lon="9.6778858"><ele>263.0</ele><time>2026-03-26T14:07:08.764Z</time></trkpt><trkpt lat="45.7044969" lon="9.6778062"><ele>263.0</ele><time>2026-03-26T14:07:12.621Z</time></trkpt><trkpt lat="45.7044613" lon="9.6777248"><ele>263.0</ele><time>2026-03-26T14:07:16.857Z</time></trkpt><trkpt lat="45.7044036" lon="9.6776863"><ele>263.0</ele><time>2026-03-26T14:07:20.775Z</time></trkpt><trkpt lat="45.704337" lon="9.6776844"><ele>263.0</ele><time>2026-03-26T14:07:25.794Z</time></trkpt><trkpt lat="45.7042706" lon="9.6776705"><ele>263.0</ele><time>2026-03-26T14:07:30.655Z</time></trkpt><trkpt lat="45.7042062" lon="9.6776673"><ele>263.0</ele><time>2026-03-26T14:07:34.652Z</time></trkpt><trkpt lat="45.7041804" lon="9.6777545"><ele>263.0</ele><time>2026-03-26T14:07:36.895Z</time></trkpt><trkpt lat="45.7041206" lon="9.6778227"><ele>263.0</ele><time>2026-03-26T14:07:41.817Z</time></trkpt><trkpt lat="45.7040449" lon="9.6777775"><ele>263.0</ele><time>2026-03-26T14:07:46.263Z</time></trkpt><trkpt lat="45.7039776" lon="9.6777295"><ele>263.0</ele><time>2026-03-26T14:07:51.267Z</time></trkpt><trkpt lat="45.7039441" lon="9.6776409"><ele>263.0</ele><time>2026-03-26T14:07:56.255Z</time></trkpt><trkpt lat="45.7039434" lon="9.6775474"><ele>263.0</ele><time>2026-03-26T14:08:00.258Z</time></trkpt><trkpt lat="45.7039512" lon="9.6774478"><ele>263.0</ele><time>2026-03-26T14:08:04.256Z</time></trkpt><trkpt lat="45.7039483" lon="9.6773412"><ele>263.0</ele><time>2026-03-26T14:08:08.215Z</time></trkpt><trkpt lat="45.7039528" lon="9.6772451"><ele>263.0</ele><time>2026-03-26T14:08:12.151Z</time></trkpt><trkpt lat="45.7039541" lon="9.6771366"><ele>263.0</ele><time>2026-03-26T14:08:16.995Z</time></trkpt><trkpt lat="45.7039499" lon="9.6770358"><ele>263.0</ele><time>2026-03-26T14:08:20.96Z</time></trkpt><trkpt lat="45.7039466" lon="9.6769456"><ele>263.2857142857143</ele><time>2026-03-26T14:08:24.878Z</time></trkpt><trkpt lat="45.7039263" lon="9.6768413"><ele>263.57142857142856</ele><time>2026-03-26T14:08:29.803Z</time></trkpt><trkpt lat="45.7038933" lon="9.6767495"><ele>263.85714285714283</ele><time>2026-03-26T14:08:34.799Z</time></trkpt><trkpt lat="45.7038619" lon="9.6766671"><ele>264.1428571428571</ele><time>2026-03-26T14:08:39.76Z</time></trkpt><trkpt lat="45.703831" lon="9.6765821"><ele>264.42857142857144</ele><time>2026-03-26T14:08:44.63Z</time></trkpt><trkpt lat="45.7038034" lon="9.6764941"><ele>264.71428571428567</ele><time>2026-03-26T14:08:49.573Z</time></trkpt><trkpt lat="45.7038061" lon="9.6763855"><ele>265.0</ele><time>2026-03-26T14:08:54.554Z</time></trkpt><trkpt lat="45.7037848" lon="9.6762813"><ele>264.99999999999994</ele><time>2026-03-26T14:08:59.532Z</time></trkpt><trkpt lat="45.7038216" lon="9.6761967"><ele>265.0</ele><time>2026-03-26T14:09:03.518Z</time></trkpt><trkpt lat="45.7038441" lon="9.6761034"><ele>265.0</ele><time>2026-03-26T14:09:08.556Z</time></trkpt><trkpt lat="45.7038781" lon="9.67601"><ele>265.0</ele><time>2026-03-26T14:09:12.64Z</time></trkpt><trkpt lat="45.7039019" lon="9.6759023"><ele>265.0</ele><time>2026-03-26T14:09:17.494Z</time></trkpt><trkpt lat="45.7039077" lon="9.6758118"><ele>264.99999999999994</ele><time>2026-03-26T14:09:22.415Z</time></trkpt><trkpt lat="45.7039353" lon="9.6757155"><ele>265.0</ele><time>2026-03-26T14:09:27.413Z</time></trkpt><trkpt lat="45.7039686" lon="9.675633"><ele>265.71428571428567</ele><time>2026-03-26T14:09:32.451Z</time></trkpt><trkpt lat="45.7040025" lon="9.6755499"><ele>266.42857142857144</ele><time>2026-03-26T14:09:37.461Z</time></trkpt><trkpt lat="45.7040331" lon="9.6754584"><ele>267.1428571428571</ele><time>2026-03-26T14:09:41.475Z</time></trkpt><trkpt lat="45.7040671" lon="9.6753561"><ele>267.85714285714283</ele><time>2026-03-26T14:09:46.738Z</time></trkpt><trkpt lat="45.7041015" lon="9.6752721"><ele>268.57142857142856</ele><time>2026-03-26T14:09:52.216Z</time></trkpt><trkpt lat="45.7041301" lon="9.6751842"><ele>269.2857142857143</ele><time>2026-03-26T14:09:58.257Z</time></trkpt><trkpt lat="45.7041567" lon="9.6750896"><ele>270.0</ele><time>2026-03-26T14:10:04.255Z</time></trkpt><trkpt lat="45.7041653" lon="9.6749827"><ele>270.7142857142857</ele><time>2026-03-26T14:10:10.251Z</time></trkpt><trkpt lat="45.7041614" lon="9.6748891"><ele>271.4285714285714</ele><time>2026-03-26T14:10:15.215Z</time></trkpt><trkpt lat="45.7041541" lon="9.6747835"><ele>272.1428571428571</ele><time>2026-03-26T14:10:22.191Z</time></trkpt><trkpt lat="45.7041594" lon="9.6746806"><ele>272.85714285714283</ele><time>2026-03-26T14:10:28.265Z</time></trkpt><trkpt lat="45.704161" lon="9.6745735"><ele>273.57142857142856</ele><time>2026-03-26T14:10:34.158Z</time></trkpt><trkpt lat="45.7041674" lon="9.6744829"><ele>274.2857142857143</ele><time>2026-03-26T14:10:39.258Z</time></trkpt><trkpt lat="45.7041772" lon="9.6743921"><ele>275.0</ele><time>2026-03-26T14:10:44.252Z</time></trkpt><trkpt lat="45.704186" lon="9.6742765"><ele>276.0</ele><time>2026-03-26T14:10:50.25Z</time></trkpt><trkpt lat="45.7041902" lon="9.6741801"><ele>277.0</ele><time>2026-03-26T14:10:56.254Z</time></trkpt><trkpt lat="45.704192" lon="9.6740824"><ele>278.0</ele><time>2026-03-26T14:11:02.255Z</time></trkpt><trkpt lat="45.7041914" lon="9.6739812"><ele>279.0</ele><time>2026-03-26T14:11:07.239Z</time></trkpt><trkpt lat="45.7041893" lon="9.6738801"><ele>280.0</ele><time>2026-03-26T14:11:13.258Z</time></trkpt><trkpt lat="45.704186" lon="9.6737823"><ele>281.0</ele><time>2026-03-26T14:11:19.261Z</time></trkpt><trkpt lat="45.7041746" lon="9.6736734"><ele>282.0</ele><time>2026-03-26T14:11:25.269Z</time></trkpt><trkpt lat="45.7041683" lon="9.67358"><ele>283.14285714285717</ele><time>2026-03-26T14:11:30.254Z</time></trkpt><trkpt lat="45.7041597" lon="9.6734842"><ele>284.2857142857143</ele><time>2026-03-26T14:11:35.257Z</time></trkpt><trkpt lat="45.7041415" lon="9.6733838"><ele>285.42857142857144</ele><time>2026-03-26T14:11:42.259Z</time></trkpt><trkpt lat="45.7041062" lon="9.6733068"><ele>286.57142857142856</ele><time>2026-03-26T14:11:47.205Z</time></trkpt><trkpt lat="45.704064" lon="9.6732364"><ele>287.7142857142857</ele><time>2026-03-26T14:11:52.255Z</time></trkpt><trkpt lat="45.7040207" lon="9.673168"><ele>288.8571428571429</ele><time>2026-03-26T14:11:57.258Z</time></trkpt><trkpt lat="45.7039727" lon="9.6731034"><ele>290.0</ele><time>2026-03-26T14:12:02.254Z</time></trkpt><trkpt lat="45.7039198" lon="9.6730301"><ele>290.0</ele><time>2026-03-26T14:12:07.277Z</time></trkpt><trkpt lat="45.7038696" lon="9.6729748"><ele>290.0</ele><time>2026-03-26T14:12:12.254Z</time></trkpt><trkpt lat="45.7038109" lon="9.6729192"><ele>290.0</ele><time>2026-03-26T14:12:17.252Z</time></trkpt><trkpt lat="45.7037571" lon="9.6728688"><ele>290.0</ele><time>2026-03-26T14:12:21.261Z</time></trkpt><trkpt lat="45.7037015" lon="9.6728229"><ele>290.0</ele><time>2026-03-26T14:12:25.261Z</time></trkpt><trkpt lat="45.70366" lon="9.6727484"><ele>290.0</ele><time>2026-03-26T14:12:30.254Z</time></trkpt><trkpt lat="45.7037223" lon="9.6727136"><ele>290.0</ele><time>2026-03-26T14:12:35.254Z</time></trkpt><trkpt lat="45.7037679" lon="9.6726455"><ele>291.0</ele><time>2026-03-26T14:12:41.242Z</time></trkpt><trkpt lat="45.7038231" lon="9.6725802"><ele>292.0</ele><time>2026-03-26T14:12:47.262Z</time></trkpt><trkpt lat="45.70387" lon="9.672501"><ele>293.0</ele><time>2026-03-26T14:12:53.253Z</time></trkpt><trkpt lat="45.7039426" lon="9.6724673"><ele>294.0</ele><time>2026-03-26T14:12:58.139Z</time></trkpt><trkpt lat="45.7040072" lon="9.6724244"><ele>295.0</ele><time>2026-03-26T14:13:03.255Z</time></trkpt><trkpt lat="45.7040647" lon="9.6723873"><ele>296.0</ele><time>2026-03-26T14:13:09.25Z</time></trkpt><trkpt lat="45.7041177" lon="9.6723097"><ele>297.0</ele><time>2026-03-26T14:13:14.257Z</time></trkpt><trkpt lat="45.7041611" lon="9.6722207"><ele>297.0</ele><time>2026-03-26T14:13:19.253Z</time></trkpt><trkpt lat="45.7041961" lon="9.6721312"><ele>297.0</ele><time>2026-03-26T14:13:26.251Z</time></trkpt><trkpt lat="45.7042357" lon="9.6720477"><ele>297.0</ele><time>2026-03-26T14:13:31.255Z</time></trkpt><trkpt lat="45.7042976" lon="9.6719664"><ele>297.0</ele><time>2026-03-26T14:13:35.252Z</time></trkpt><trkpt lat="45.7043527" lon="9.67191"><ele>297.0</ele><time>2026-03-26T14:13:40.252Z</time></trkpt><trkpt lat="45.7044107" lon="9.6718526"><ele>297.0</ele><time>2026-03-26T14:13:46.264Z</time></trkpt><trkpt lat="45.7044694" lon="9.6718019"><ele>297.0</ele><time>2026-03-26T14:13:51.193Z</time></trkpt><trkpt lat="45.7044996" lon="9.6717072"><ele>298.8571428571429</ele><time>2026-03-26T14:13:57.25Z</time></trkpt><trkpt lat="45.704548" lon="9.6716263"><ele>300.7142857142857</ele><time>2026-03-26T14:14:02.261Z</time></trkpt><trkpt lat="45.7045965" lon="9.6715388"><ele>302.57142857142856</ele><time>2026-03-26T14:14:07.216Z</time></trkpt><trkpt lat="45.7046252" lon="9.6714435"><ele>304.42857142857144</ele><time>2026-03-26T14:14:13.275Z</time></trkpt><trkpt lat="45.704647" lon="9.6713526"><ele>306.2857142857143</ele><time>2026-03-26T14:14:18.253Z</time></trkpt><trkpt lat="45.7046713" lon="9.6712676"><ele>308.14285714285717</ele><time>2026-03-26T14:14:23.257Z</time></trkpt><trkpt lat="45.7046972" lon="9.6711741"><ele>310.0</ele><time>2026-03-26T14:14:28.261Z</time></trkpt><trkpt lat="45.7047167" lon="9.6710817"><ele>310.0</ele><time>2026-03-26T14:14:34.256Z</time></trkpt><trkpt lat="45.7047274" lon="9.6709855"><ele>310.0</ele><time>2026-03-26T14:14:40.26Z</time></trkpt><trkpt lat="45.7047085" lon="9.670885"><ele>310.0</ele><time>2026-03-26T14:14:45.257Z</time></trkpt><trkpt lat="45.7046708" lon="9.6708078"><ele>310.0</ele><time>2026-03-26T14:14:49.257Z</time></trkpt><trkpt lat="45.7046443" lon="9.6707034"><ele>310.0</ele><time>2026-03-26T14:14:54.248Z</time></trkpt><trkpt lat="45.7046126" lon="9.6706091"><ele>310.0</ele><time>2026-03-26T14:14:59.259Z</time></trkpt><trkpt lat="45.7045888" lon="9.6705255"><ele>310.0</ele><time>2026-03-26T14:15:04.258Z</time></trkpt><trkpt lat="45.7045567" lon="9.6704343"><ele>310.0</ele><time>2026-03-26T14:15:09.236Z</time></trkpt><trkpt lat="45.7045268" lon="9.6703468"><ele>310.0</ele><time>2026-03-26T14:15:14.201Z</time></trkpt><trkpt lat="45.7044961" lon="9.6702594"><ele>310.0</ele><time>2026-03-26T14:15:19.234Z</time></trkpt><trkpt lat="45.7044726" lon="9.6701511"><ele>310.0</ele><time>2026-03-26T14:15:24.25Z</time></trkpt><trkpt lat="45.7044437" lon="9.6700534"><ele>310.0</ele><time>2026-03-26T14:15:29.251Z</time></trkpt><trkpt lat="45.7044087" lon="9.6699549"><ele>310.0</ele><time>2026-03-26T14:15:34.255Z</time></trkpt><trkpt lat="45.7043712" lon="9.6698641"><ele>310.0</ele><time>2026-03-26T14:15:39.261Z</time></trkpt><trkpt lat="45.7043391" lon="9.6697716"><ele>312.42857142857144</ele><time>2026-03-26T14:15:44.253Z</time></trkpt><trkpt lat="45.704309" lon="9.66968"><ele>314.85714285714283</ele><time>2026-03-26T14:15:49.257Z</time></trkpt><trkpt lat="45.704278" lon="9.6695981"><ele>317.2857142857143</ele><time>2026-03-26T14:15:54.267Z</time></trkpt><trkpt lat="45.7042409" lon="9.6695171"><ele>319.7142857142857</ele><time>2026-03-26T14:16:01.24Z</time></trkpt><trkpt lat="45.7041808" lon="9.6694656"><ele>322.14285714285717</ele><time>2026-03-26T14:16:07.28Z</time></trkpt><trkpt lat="45.704115" lon="9.6694577"><ele>324.57142857142856</ele><time>2026-03-26T14:16:11.256Z</time></trkpt><trkpt lat="45.7040521" lon="9.6694144"><ele>327.0</ele><time>2026-03-26T14:16:16.254Z</time></trkpt><trkpt lat="45.7039906" lon="9.6693774"><ele>327.0</ele><time>2026-03-26T14:16:21.25Z</time></trkpt><trkpt lat="45.7039172" lon="9.6693485"><ele>327.0</ele><time>2026-03-26T14:16:27.261Z</time></trkpt><trkpt lat="45.7038513" lon="9.6692982"><ele>327.0</ele><time>2026-03-26T14:16:33.233Z</time></trkpt><trkpt lat="45.703795" lon="9.669256"><ele>327.0</ele><time>2026-03-26T14:16:38.253Z</time></trkpt><trkpt lat="45.7037721" lon="9.6691666"><ele>327.0</ele><time>2026-03-26T14:16:43.255Z</time></trkpt><trkpt lat="45.7037413" lon="9.6690844"><ele>327.0</ele><time>2026-03-26T14:16:48.258Z</time></trkpt><trkpt lat="45.7037125" lon="9.6689977"><ele>327.0</ele><time>2026-03-26T14:16:54.247Z</time></trkpt><trkpt lat="45.7036727" lon="9.6689111"><ele>327.0</ele><time>2026-03-26T14:17:00.18Z</time></trkpt><trkpt lat="45.7036194" lon="9.6688354"><ele>327.0</ele><time>2026-03-26T14:17:06.249Z</time></trkpt><trkpt lat="45.703568" lon="9.6687701"><ele>327.0</ele><time>2026-03-26T14:17:11.153Z</time></trkpt><trkpt lat="45.7035176" lon="9.6687152"><ele>327.0</ele><time>2026-03-26T14:17:16.25Z</time></trkpt><trkpt lat="45.7034582" lon="9.6686506"><ele>327.0</ele><time>2026-03-26T14:17:22.255Z</time></trkpt><trkpt lat="45.7034099" lon="9.6685927"><ele>327.0</ele><time>2026-03-26T14:17:27.252Z</time></trkpt><trkpt lat="45.7033617" lon="9.6685223"><ele>327.0</ele><time>2026-03-26T14:17:33.276Z</time></trkpt><trkpt lat="45.7033455" lon="9.6686151"><ele>328.1666666666667</ele><time>2026-03-26T14:17:50.256Z</time></trkpt><trkpt lat="45.7032772" lon="9.6685943"><ele>329.3333333333333</ele><time>2026-03-26T14:17:55.155Z</time></trkpt><trkpt lat="45.7032234" lon="9.6685404"><ele>330.5</ele><time>2026-03-26T14:17:56.256Z</time></trkpt><trkpt lat="45.7032052" lon="9.6684352"><ele>331.66666666666663</ele><time>2026-03-26T14:18:02.251Z</time></trkpt><trkpt lat="45.7032032" lon="9.6682377"><ele>332.8333333333333</ele><time>2026-03-26T14:18:12.261Z</time></trkpt><trkpt lat="45.7032105" lon="9.6681175"><ele>334.0</ele><time>2026-03-26T14:18:14.258Z</time></trkpt><trkpt lat="45.7032331" lon="9.6680197"><ele>334.0</ele><time>2026-03-26T14:18:18.204Z</time></trkpt><trkpt lat="45.7033181" lon="9.6678648"><ele>334.0</ele><time>2026-03-26T14:18:31.257Z</time></trkpt><trkpt lat="45.703387" lon="9.6677296"><ele>334.0</ele><time>2026-03-26T14:18:33.258Z</time></trkpt><trkpt lat="45.7033591" lon="9.6676251"><ele>334.0</ele><time>2026-03-26T14:18:37.253Z</time></trkpt><trkpt lat="45.7033177" lon="9.6675427"><ele>334.0</ele><time>2026-03-26T14:18:42.252Z</time></trkpt><trkpt lat="45.7032575" lon="9.6674805"><ele>336.42857142857144</ele><time>2026-03-26T14:18:46.262Z</time></trkpt><trkpt lat="45.7032214" lon="9.667404"><ele>338.8571428571429</ele><time>2026-03-26T14:18:50.254Z</time></trkpt><trkpt lat="45.7032232" lon="9.6673051"><ele>341.28571428571433</ele><time>2026-03-26T14:18:55.248Z</time></trkpt><trkpt lat="45.7032184" lon="9.6672078"><ele>343.7142857142857</ele><time>2026-03-26T14:19:00.247Z</time></trkpt><trkpt lat="45.7031886" lon="9.6671278"><ele>346.14285714285717</ele><time>2026-03-26T14:19:04.252Z</time></trkpt><trkpt lat="45.7031577" lon="9.6670298"><ele>348.5714285714286</ele><time>2026-03-26T14:19:08.254Z</time></trkpt><trkpt lat="45.7031125" lon="9.6669507"><ele>351.0</ele><time>2026-03-26T14:19:13.221Z</time></trkpt><trkpt lat="45.7031091" lon="9.6668272"><ele>352.42857142857144</ele><time>2026-03-26T14:19:17.237Z</time></trkpt><trkpt lat="45.703117" lon="9.6667189"><ele>353.8571428571429</ele><time>2026-03-26T14:19:21.239Z</time></trkpt><trkpt lat="45.7031294" lon="9.6666229"><ele>355.28571428571433</ele><time>2026-03-26T14:19:25.253Z</time></trkpt><trkpt lat="45.7031353" lon="9.6665322"><ele>356.7142857142857</ele><time>2026-03-26T14:19:30.253Z</time></trkpt><trkpt lat="45.7031289" lon="9.666425"><ele>358.1428571428571</ele><time>2026-03-26T14:19:36.255Z</time></trkpt><trkpt lat="45.7031307" lon="9.6663287"><ele>359.5714285714286</ele><time>2026-03-26T14:19:41.254Z</time></trkpt><trkpt lat="45.7031323" lon="9.66623"><ele>361.0</ele><time>2026-03-26T14:19:46.252Z</time></trkpt><trkpt lat="45.7031329" lon="9.6661289"><ele>361.7142857142857</ele><time>2026-03-26T14:19:51.259Z</time></trkpt><trkpt lat="45.7031338" lon="9.6660376"><ele>362.4285714285714</ele><time>2026-03-26T14:19:56.248Z</time></trkpt><trkpt lat="45.7031201" lon="9.6659408"><ele>363.1428571428571</ele><time>2026-03-26T14:20:01.251Z</time></trkpt><trkpt lat="45.7031182" lon="9.6658257"><ele>363.8571428571429</ele><time>2026-03-26T14:20:07.132Z</time></trkpt><trkpt lat="45.703116" lon="9.6657264"><ele>364.57142857142856</ele><time>2026-03-26T14:20:12.206Z</time></trkpt><trkpt lat="45.7031077" lon="9.6656235"><ele>365.2857142857143</ele><time>2026-03-26T14:20:17.249Z</time></trkpt><trkpt lat="45.7030957" lon="9.6655301"><ele>366.0</ele><time>2026-03-26T14:20:22.253Z</time></trkpt><trkpt lat="45.7030914" lon="9.6654387"><ele>366.0</ele><time>2026-03-26T14:20:26.202Z</time></trkpt><trkpt lat="45.7030709" lon="9.6653432"><ele>366.0</ele><time>2026-03-26T14:20:31.254Z</time></trkpt><trkpt lat="45.7030299" lon="9.6652679"><ele>366.0</ele><time>2026-03-26T14:20:36.256Z</time></trkpt><trkpt lat="45.70299" lon="9.6651861"><ele>366.0</ele><time>2026-03-26T14:20:42.219Z</time></trkpt><trkpt lat="45.7029233" lon="9.6651895"><ele>366.0</ele><time>2026-03-26T14:20:56.253Z</time></trkpt><trkpt lat="45.7028719" lon="9.6652461"><ele>366.0</ele><time>2026-03-26T14:21:01.257Z</time></trkpt><trkpt lat="45.7029313" lon="9.6651702"><ele>366.0</ele><time>2026-03-26T14:21:10.25Z</time></trkpt><trkpt lat="45.7028692" lon="9.6651295"><ele>366.3333333333333</ele><time>2026-03-26T14:21:14.254Z</time></trkpt><trkpt lat="45.7029191" lon="9.6650666"><ele>366.6666666666667</ele><time>2026-03-26T14:21:19.257Z</time></trkpt><trkpt lat="45.7029815" lon="9.6650433"><ele>367.0</ele><time>2026-03-26T14:21:23.255Z</time></trkpt><trkpt lat="45.7029924" lon="9.6649496"><ele>367.33333333333337</ele><time>2026-03-26T14:21:31.252Z</time></trkpt><trkpt lat="45.7029735" lon="9.6648581"><ele>367.6666666666667</ele><time>2026-03-26T14:21:38.247Z</time></trkpt><trkpt lat="45.702909" lon="9.6648424"><ele>368.0</ele><time>2026-03-26T14:21:46.248Z</time></trkpt><trkpt lat="45.7030178" lon="9.6652007"><ele>368.0</ele><time>2026-03-26T14:22:17.391Z</time></trkpt><trkpt lat="45.7030149" lon="9.6650857"><ele>368.0</ele><time>2026-03-26T14:23:32.259Z</time></trkpt><trkpt lat="45.7030519" lon="9.6651598"><ele>368.0</ele><time>2026-03-26T14:23:40.251Z</time></trkpt><trkpt lat="45.7031152" lon="9.6651466"><ele>368.0</ele><time>2026-03-26T14:23:47.246Z</time></trkpt><trkpt lat="45.7031805" lon="9.6651544"><ele>368.0</ele><time>2026-03-26T14:24:35.265Z</time></trkpt><trkpt lat="45.7032593" lon="9.6651751"><ele>368.0</ele><time>2026-03-26T14:25:35.261Z</time></trkpt><trkpt lat="45.7033088" lon="9.6651176"><ele>368.0</ele><time>2026-03-26T14:26:57.26Z</time></trkpt><trkpt lat="45.7033487" lon="9.6650395"><ele>368.0</ele><time>2026-03-26T14:27:04.256Z</time></trkpt><trkpt lat="45.7033912" lon="9.6649546"><ele>368.0</ele><time>2026-03-26T14:27:12.261Z</time></trkpt><trkpt lat="45.7034273" lon="9.6648782"><ele>368.0</ele><time>2026-03-26T14:27:17.253Z</time></trkpt><trkpt lat="45.7034557" lon="9.6647969"><ele>368.0</ele><time>2026-03-26T14:27:22.264Z</time></trkpt><trkpt lat="45.703509" lon="9.6646795"><ele>368.0</ele><time>2026-03-26T14:28:14.254Z</time></trkpt><trkpt lat="45.7035706" lon="9.6645471"><ele>368.0</ele><time>2026-03-26T14:28:42.251Z</time></trkpt><trkpt lat="45.7036056" lon="9.6644616"><ele>368.2857142857143</ele><time>2026-03-26T14:28:45.254Z</time></trkpt><trkpt lat="45.7036806" lon="9.6644373"><ele>368.57142857142856</ele><time>2026-03-26T14:28:58.281Z</time></trkpt><trkpt lat="45.7036715" lon="9.6643412"><ele>368.85714285714283</ele><time>2026-03-26T14:29:01.24Z</time></trkpt><trkpt lat="45.7036725" lon="9.6642508"><ele>369.1428571428571</ele><time>2026-03-26T14:29:04.18Z</time></trkpt><trkpt lat="45.7037114" lon="9.6641634"><ele>369.42857142857144</ele><time>2026-03-26T14:29:10.154Z</time></trkpt><trkpt lat="45.7037518" lon="9.6640691"><ele>369.71428571428567</ele><time>2026-03-26T14:29:15.311Z</time></trkpt><trkpt lat="45.7037912" lon="9.6639724"><ele>370.0</ele><time>2026-03-26T14:29:23.281Z</time></trkpt><trkpt lat="45.703837" lon="9.6638605"><ele>369.99999999999994</ele><time>2026-03-26T14:29:30.271Z</time></trkpt><trkpt lat="45.7038714" lon="9.6637805"><ele>370.0</ele><time>2026-03-26T14:29:34.194Z</time></trkpt><trkpt lat="45.7039106" lon="9.663692"><ele>370.0</ele><time>2026-03-26T14:29:39.291Z</time></trkpt><trkpt lat="45.7039495" lon="9.663614"><ele>370.0</ele><time>2026-03-26T14:29:46.26Z</time></trkpt><trkpt lat="45.7040085" lon="9.6635403"><ele>370.0</ele><time>2026-03-26T14:29:52.218Z</time></trkpt><trkpt lat="45.7040629" lon="9.6634605"><ele>369.99999999999994</ele><time>2026-03-26T14:29:56.174Z</time></trkpt><trkpt lat="45.7041114" lon="9.6633892"><ele>370.0</ele><time>2026-03-26T14:30:00.265Z</time></trkpt><trkpt lat="45.7041649" lon="9.6633341"><ele>370.4285714285714</ele><time>2026-03-26T14:30:05.259Z</time></trkpt><trkpt lat="45.7041752" lon="9.6632447"><ele>370.85714285714283</ele><time>2026-03-26T14:30:11.275Z</time></trkpt><trkpt lat="45.7041094" lon="9.6632056"><ele>371.2857142857143</ele><time>2026-03-26T14:30:17.28Z</time></trkpt><trkpt lat="45.7040662" lon="9.6631359"><ele>371.71428571428567</ele><time>2026-03-26T14:30:23.863Z</time></trkpt><trkpt lat="45.7040871" lon="9.6630506"><ele>372.14285714285717</ele><time>2026-03-26T14:30:30.179Z</time></trkpt><trkpt lat="45.7041314" lon="9.6629845"><ele>372.57142857142856</ele><time>2026-03-26T14:30:37.262Z</time></trkpt><trkpt lat="45.7042165" lon="9.6628959"><ele>373.0</ele><time>2026-03-26T14:31:05.257Z</time></trkpt><trkpt lat="45.7041571" lon="9.6628504"><ele>373.0</ele><time>2026-03-26T14:32:19.259Z</time></trkpt><trkpt lat="45.7040861" lon="9.6629078"><ele>373.0</ele><time>2026-03-26T14:33:17.256Z</time></trkpt><trkpt lat="45.7040211" lon="9.6628698"><ele>373.0</ele><time>2026-03-26T14:33:44.248Z</time></trkpt><trkpt lat="45.7039673" lon="9.6628218"><ele>373.0</ele><time>2026-03-26T14:33:49.253Z</time></trkpt><trkpt lat="45.7040179" lon="9.6627654"><ele>373.0</ele><time>2026-03-26T14:34:06.251Z</time></trkpt><trkpt lat="45.7040869" lon="9.6627693"><ele>373.0</ele><time>2026-03-26T14:34:14.247Z</time></trkpt><trkpt lat="45.7041392" lon="9.6628247"><ele>373.0</ele><time>2026-03-26T14:34:21.253Z</time></trkpt><trkpt lat="45.7041482" lon="9.6629158"><ele>373.0</ele><time>2026-03-26T14:35:34.26Z</time></trkpt><trkpt lat="45.7042036" lon="9.6629814"><ele>373.0</ele><time>2026-03-26T14:36:55.257Z</time></trkpt><trkpt lat="45.7042727" lon="9.6630089"><ele>373.0</ele><time>2026-03-26T14:37:03.25Z</time></trkpt><trkpt lat="45.7043365" lon="9.6630129"><ele>373.0</ele><time>2026-03-26T14:37:20.231Z</time></trkpt><trkpt lat="45.7044157" lon="9.6629514"><ele>373.0</ele><time>2026-03-26T14:38:11.261Z</time></trkpt><trkpt lat="45.7043389" lon="9.662909"><ele>373.0</ele><time>2026-03-26T14:38:36.257Z</time></trkpt><trkpt lat="45.7042652" lon="9.6629002"><ele>373.0</ele><time>2026-03-26T14:38:43.265Z</time></trkpt><trkpt lat="45.704215" lon="9.662957"><ele>373.0</ele><time>2026-03-26T14:38:47.211Z</time></trkpt><trkpt lat="45.7041518" lon="9.6629321"><ele>373.0</ele><time>2026-03-26T14:38:52.26Z</time></trkpt><trkpt lat="45.7041363" lon="9.6628442"><ele>373.0</ele><time>2026-03-26T14:40:06.252Z</time></trkpt><trkpt lat="45.7041499" lon="9.6629666"><ele>373.0</ele><time>2026-03-26T14:42:05.292Z</time></trkpt><trkpt lat="45.704128" lon="9.6628807"><ele>373.0</ele><time>2026-03-26T14:42:15.265Z</time></trkpt><trkpt lat="45.7040931" lon="9.6629563"><ele>373.0</ele><time>2026-03-26T14:42:26.267Z</time></trkpt><trkpt lat="45.7040275" lon="9.6629209"><ele>373.0</ele><time>2026-03-26T14:42:31.176Z</time></trkpt><trkpt lat="45.7040703" lon="9.662795"><ele>373.0</ele><time>2026-03-26T14:43:53.259Z</time></trkpt><trkpt lat="45.7040727" lon="9.6628859"><ele>373.0</ele><time>2026-03-26T14:46:42.264Z</time></trkpt><trkpt lat="45.7040462" lon="9.6629854"><ele>373.0</ele><time>2026-03-26T14:47:30.258Z</time></trkpt><trkpt lat="45.7040767" lon="9.6630833"><ele>373.0</ele><time>2026-03-26T14:47:35.266Z</time></trkpt><trkpt lat="45.7040819" lon="9.663187"><ele>373.0</ele><time>2026-03-26T14:47:49.279Z</time></trkpt><trkpt lat="45.7040897" lon="9.6632785"><ele>373.0</ele><time>2026-03-26T14:49:25.261Z</time></trkpt><trkpt lat="45.7041538" lon="9.6632941"><ele>373.0</ele><time>2026-03-26T14:49:30.258Z</time></trkpt><trkpt lat="45.7042221" lon="9.6632582"><ele>373.0</ele><time>2026-03-26T14:49:42.255Z</time></trkpt><trkpt lat="45.7042558" lon="9.6631464"><ele>373.0</ele><time>2026-03-26T14:49:51.317Z</time></trkpt><trkpt lat="45.7043365" lon="9.6630552"><ele>373.0</ele><time>2026-03-26T14:50:10.196Z</time></trkpt><trkpt lat="45.7044037" lon="9.6630064"><ele>373.0</ele><time>2026-03-26T14:50:14.23Z</time></trkpt><trkpt lat="45.7044506" lon="9.6629417"><ele>373.0</ele><time>2026-03-26T14:50:17.177Z</time></trkpt><trkpt lat="45.7044786" lon="9.6628554"><ele>372.5</ele><time>2026-03-26T14:50:22.21Z</time></trkpt><trkpt lat="45.7044941" lon="9.6627607"><ele>372.0</ele><time>2026-03-26T14:50:25.133Z</time></trkpt><trkpt lat="45.7045062" lon="9.662666"><ele>371.5</ele><time>2026-03-26T14:50:31.332Z</time></trkpt><trkpt lat="45.7045273" lon="9.662532"><ele>371.0</ele><time>2026-03-26T14:50:41.265Z</time></trkpt><trkpt lat="45.7045575" lon="9.6624414"><ele>370.5</ele><time>2026-03-26T14:50:45.278Z</time></trkpt><trkpt lat="45.7045899" lon="9.6623318"><ele>370.0</ele><time>2026-03-26T14:50:50.26Z</time></trkpt><trkpt lat="45.7046156" lon="9.6622341"><ele>369.99999999999994</ele><time>2026-03-26T14:50:57.256Z</time></trkpt><trkpt lat="45.7046478" lon="9.6621395"><ele>370.0</ele><time>2026-03-26T14:51:00.265Z</time></trkpt><trkpt lat="45.7046866" lon="9.6620268"><ele>370.0</ele><time>2026-03-26T14:51:05.26Z</time></trkpt><trkpt lat="45.7047122" lon="9.6619297"><ele>370.0</ele><time>2026-03-26T14:51:11.254Z</time></trkpt><trkpt lat="45.7047342" lon="9.6618412"><ele>370.0</ele><time>2026-03-26T14:51:16.264Z</time></trkpt><trkpt lat="45.7047633" lon="9.661759"><ele>369.99999999999994</ele><time>2026-03-26T14:51:19.265Z</time></trkpt><trkpt lat="45.7047938" lon="9.6616739"><ele>370.0</ele><time>2026-03-26T14:51:22.285Z</time></trkpt><trkpt lat="45.704828" lon="9.6615908"><ele>370.71428571428567</ele><time>2026-03-26T14:51:29.26Z</time></trkpt><trkpt lat="45.7048436" lon="9.6615027"><ele>371.42857142857144</ele><time>2026-03-26T14:51:34.257Z</time></trkpt><trkpt lat="45.70487" lon="9.6613914"><ele>372.1428571428571</ele><time>2026-03-26T14:51:41.257Z</time></trkpt><trkpt lat="45.7048904" lon="9.6613032"><ele>372.85714285714283</ele><time>2026-03-26T14:51:46.263Z</time></trkpt><trkpt lat="45.7049452" lon="9.6612448"><ele>373.57142857142856</ele><time>2026-03-26T14:51:51.26Z</time></trkpt><trkpt lat="45.7049719" lon="9.6611508"><ele>374.2857142857143</ele><time>2026-03-26T14:51:57.264Z</time></trkpt><trkpt lat="45.7050038" lon="9.6610626"><ele>375.0</ele><time>2026-03-26T14:52:02.269Z</time></trkpt><trkpt lat="45.7050491" lon="9.660977"><ele>375.14285714285717</ele><time>2026-03-26T14:52:07.291Z</time></trkpt><trkpt lat="45.7050809" lon="9.6608935"><ele>375.2857142857143</ele><time>2026-03-26T14:52:12.256Z</time></trkpt><trkpt lat="45.7051158" lon="9.6608025"><ele>375.42857142857144</ele><time>2026-03-26T14:52:17.267Z</time></trkpt><trkpt lat="45.7051483" lon="9.6607116"><ele>375.57142857142856</ele><time>2026-03-26T14:52:22.277Z</time></trkpt><trkpt lat="45.7051721" lon="9.6606083"><ele>375.71428571428567</ele><time>2026-03-26T14:52:29.267Z</time></trkpt><trkpt lat="45.7052053" lon="9.6605303"><ele>375.85714285714283</ele><time>2026-03-26T14:52:34.259Z</time></trkpt><trkpt lat="45.7052381" lon="9.6604514"><ele>376.0</ele><time>2026-03-26T14:52:39.279Z</time></trkpt><trkpt lat="45.7052677" lon="9.6603575"><ele>374.8333333333333</ele><time>2026-03-26T14:52:46.201Z</time></trkpt><trkpt lat="45.7052937" lon="9.6602604"><ele>373.66666666666663</ele><time>2026-03-26T14:52:51.156Z</time></trkpt><trkpt lat="45.7053464" lon="9.6601365"><ele>372.5</ele><time>2026-03-26T14:53:00.271Z</time></trkpt><trkpt lat="45.7053694" lon="9.6600494"><ele>371.3333333333333</ele><time>2026-03-26T14:53:03.271Z</time></trkpt><trkpt lat="45.7054017" lon="9.6599693"><ele>370.1666666666667</ele><time>2026-03-26T14:53:08.098Z</time></trkpt><trkpt lat="45.7054415" lon="9.6598908"><ele>369.0</ele><time>2026-03-26T14:53:13.264Z</time></trkpt><trkpt lat="45.7054869" lon="9.6597961"><ele>369.0</ele><time>2026-03-26T14:53:19.305Z</time></trkpt><trkpt lat="45.7055167" lon="9.6597111"><ele>369.0</ele><time>2026-03-26T14:53:25.271Z</time></trkpt><trkpt lat="45.7054992" lon="9.6596164"><ele>369.0</ele><time>2026-03-26T14:53:33.258Z</time></trkpt><trkpt lat="45.7055532" lon="9.659556"><ele>369.0</ele><time>2026-03-26T14:53:37.135Z</time></trkpt><trkpt lat="45.7056253" lon="9.6595175"><ele>369.0</ele><time>2026-03-26T14:53:42.141Z</time></trkpt><trkpt lat="45.7056883" lon="9.6594679"><ele>369.0</ele><time>2026-03-26T14:53:47.27Z</time></trkpt><trkpt lat="45.7057475" lon="9.6594073"><ele>369.0</ele><time>2026-03-26T14:53:52.263Z</time></trkpt><trkpt lat="45.7058044" lon="9.659367"><ele>369.57142857142856</ele><time>2026-03-26T14:53:57.262Z</time></trkpt><trkpt lat="45.7058696" lon="9.6593222"><ele>370.1428571428571</ele><time>2026-03-26T14:54:03.264Z</time></trkpt><trkpt lat="45.7059388" lon="9.6592886"><ele>370.7142857142857</ele><time>2026-03-26T14:54:08.26Z</time></trkpt><trkpt lat="45.7060017" lon="9.6592717"><ele>371.2857142857143</ele><time>2026-03-26T14:54:14.796Z</time></trkpt><trkpt lat="45.7060751" lon="9.6592509"><ele>371.8571428571429</ele><time>2026-03-26T14:54:20.277Z</time></trkpt><trkpt lat="45.7061451" lon="9.6592554"><ele>372.42857142857144</ele><time>2026-03-26T14:54:25.189Z</time></trkpt><trkpt lat="45.7062015" lon="9.6591929"><ele>373.0</ele><time>2026-03-26T14:54:30.278Z</time></trkpt><trkpt lat="45.7062488" lon="9.6591252"><ele>372.57142857142856</ele><time>2026-03-26T14:54:37.216Z</time></trkpt><trkpt lat="45.7062839" lon="9.6590327"><ele>372.14285714285717</ele><time>2026-03-26T14:54:41.148Z</time></trkpt><trkpt lat="45.7062997" lon="9.6589427"><ele>371.71428571428567</ele><time>2026-03-26T14:54:45.295Z</time></trkpt><trkpt lat="45.7063206" lon="9.6588231"><ele>371.2857142857143</ele><time>2026-03-26T14:54:51.234Z</time></trkpt><trkpt lat="45.706327" lon="9.6587256"><ele>370.85714285714283</ele><time>2026-03-26T14:54:56.252Z</time></trkpt><trkpt lat="45.7063672" lon="9.6586516"><ele>370.4285714285714</ele><time>2026-03-26T14:55:03.261Z</time></trkpt><trkpt lat="45.7064243" lon="9.6586096"><ele>370.0</ele><time>2026-03-26T14:55:13.257Z</time></trkpt><trkpt lat="45.7064999" lon="9.6586208"><ele>367.99999999999994</ele><time>2026-03-26T14:55:23.263Z</time></trkpt><trkpt lat="45.7065531" lon="9.6586947"><ele>366.0</ele><time>2026-03-26T14:55:26.294Z</time></trkpt><trkpt lat="45.7064886" lon="9.6587347"><ele>364.0</ele><time>2026-03-26T14:55:48.264Z</time></trkpt><trkpt lat="45.7064351" lon="9.6588023"><ele>362.0</ele><time>2026-03-26T14:55:52.174Z</time></trkpt><trkpt lat="45.7064017" lon="9.6589081"><ele>360.0</ele><time>2026-03-26T14:55:57.261Z</time></trkpt><trkpt lat="45.7063912" lon="9.6590123"><ele>357.99999999999994</ele><time>2026-03-26T14:56:03.254Z</time></trkpt><trkpt lat="45.706383" lon="9.659108"><ele>356.0</ele><time>2026-03-26T14:56:07.275Z</time></trkpt><trkpt lat="45.7063569" lon="9.6592085"><ele>355.99999999999994</ele><time>2026-03-26T14:56:30.261Z</time></trkpt><trkpt lat="45.7064058" lon="9.659267"><ele>356.0</ele><time>2026-03-26T14:56:37.263Z</time></trkpt><trkpt lat="45.7063564" lon="9.6593299"><ele>356.0</ele><time>2026-03-26T14:56:57.258Z</time></trkpt><trkpt lat="45.7063018" lon="9.6593931"><ele>356.0</ele><time>2026-03-26T14:57:03.289Z</time></trkpt><trkpt lat="45.7062322" lon="9.6594043"><ele>356.0</ele><time>2026-03-26T14:57:08.263Z</time></trkpt><trkpt lat="45.7061644" lon="9.6593546"><ele>355.99999999999994</ele><time>2026-03-26T14:57:12.253Z</time></trkpt><trkpt lat="45.7061031" lon="9.6593095"><ele>356.0</ele><time>2026-03-26T14:57:17.275Z</time></trkpt><trkpt lat="45.7060444" lon="9.6592476"><ele>358.83333333333337</ele><time>2026-03-26T14:57:25.262Z</time></trkpt><trkpt lat="45.7060141" lon="9.6591659"><ele>361.6666666666667</ele><time>2026-03-26T14:57:29.26Z</time></trkpt><trkpt lat="45.7059421" lon="9.659142"><ele>364.5</ele><time>2026-03-26T14:57:32.271Z</time></trkpt><trkpt lat="45.7060245" lon="9.6590006"><ele>367.3333333333333</ele><time>2026-03-26T14:57:55.258Z</time></trkpt><trkpt lat="45.7060026" lon="9.6589101"><ele>370.16666666666663</ele><time>2026-03-26T14:57:58.293Z</time></trkpt><trkpt lat="45.7060003" lon="9.658811"><ele>373.0</ele><time>2026-03-26T14:58:02.261Z</time></trkpt><trkpt lat="45.7060469" lon="9.658731"><ele>373.0</ele><time>2026-03-26T14:58:06.266Z</time></trkpt><trkpt lat="45.7059773" lon="9.6586766"><ele>373.0</ele><time>2026-03-26T14:58:12.266Z</time></trkpt><trkpt lat="45.7059018" lon="9.6586858"><ele>373.0</ele><time>2026-03-26T14:58:17.264Z</time></trkpt><trkpt lat="45.7059744" lon="9.6586801"><ele>373.0</ele><time>2026-03-26T14:58:31.239Z</time></trkpt><trkpt lat="45.7060468" lon="9.6586839"><ele>373.0</ele><time>2026-03-26T14:58:34.264Z</time></trkpt><trkpt lat="45.7060411" lon="9.6587796"><ele>373.0</ele><time>2026-03-26T14:58:56.259Z</time></trkpt><trkpt lat="45.7060546" lon="9.658882"><ele>373.0</ele><time>2026-03-26T14:59:00.298Z</time></trkpt><trkpt lat="45.7060193" lon="9.6589716"><ele>373.0</ele><time>2026-03-26T14:59:05.253Z</time></trkpt><trkpt lat="45.70601" lon="9.6590662"><ele>373.0</ele><time>2026-03-26T14:59:10.257Z</time></trkpt><trkpt lat="45.7059534" lon="9.6591316"><ele>373.0</ele><time>2026-03-26T14:59:13.298Z</time></trkpt><trkpt lat="45.705888" lon="9.6591587"><ele>373.0</ele><time>2026-03-26T14:59:18.257Z</time></trkpt><trkpt lat="45.7058163" lon="9.6591551"><ele>373.0</ele><time>2026-03-26T14:59:23.276Z</time></trkpt><trkpt lat="45.7058441" lon="9.6592446"><ele>373.0</ele><time>2026-03-26T14:59:45.273Z</time></trkpt><trkpt lat="45.7059019" lon="9.6592814"><ele>373.0</ele><time>2026-03-26T14:59:50.24Z</time></trkpt><trkpt lat="45.7059397" lon="9.6593609"><ele>373.0</ele><time>2026-03-26T14:59:56.295Z</time></trkpt><trkpt lat="45.7058765" lon="9.6594065"><ele>373.0</ele><time>2026-03-26T15:00:02.282Z</time></trkpt><trkpt lat="45.7058086" lon="9.6594422"><ele>373.0</ele><time>2026-03-26T15:00:08.254Z</time></trkpt><trkpt lat="45.7057443" lon="9.6594563"><ele>373.0</ele><time>2026-03-26T15:00:13.266Z</time></trkpt><trkpt lat="45.7056812" lon="9.6594963"><ele>373.0</ele><time>2026-03-26T15:00:18.266Z</time></trkpt><trkpt lat="45.7056201" lon="9.659535"><ele>373.0</ele><time>2026-03-26T15:00:23.272Z</time></trkpt><trkpt lat="45.7055544" lon="9.6595814"><ele>373.0</ele><time>2026-03-26T15:00:28.235Z</time></trkpt><trkpt lat="45.7055155" lon="9.6596644"><ele>372.42857142857144</ele><time>2026-03-26T15:00:33.192Z</time></trkpt><trkpt lat="45.7054855" lon="9.6597512"><ele>371.8571428571429</ele><time>2026-03-26T15:00:37.124Z</time></trkpt><trkpt lat="45.7054434" lon="9.6598325"><ele>371.2857142857143</ele><time>2026-03-26T15:00:43.149Z</time></trkpt><trkpt lat="45.7054014" lon="9.6599237"><ele>370.7142857142857</ele><time>2026-03-26T15:00:49.259Z</time></trkpt><trkpt lat="45.7053611" lon="9.6599975"><ele>370.1428571428571</ele><time>2026-03-26T15:00:55.249Z</time></trkpt><trkpt lat="45.7053269" lon="9.6600868"><ele>369.57142857142856</ele><time>2026-03-26T15:01:01.282Z</time></trkpt><trkpt lat="45.7052942" lon="9.6601717"><ele>369.0</ele><time>2026-03-26T15:01:05.262Z</time></trkpt><trkpt lat="45.7052582" lon="9.6602701"><ele>370.0</ele><time>2026-03-26T15:01:10.26Z</time></trkpt><trkpt lat="45.705236" lon="9.6603641"><ele>371.0</ele><time>2026-03-26T15:01:15.263Z</time></trkpt><trkpt lat="45.7051998" lon="9.6604621"><ele>372.0</ele><time>2026-03-26T15:01:21.262Z</time></trkpt><trkpt lat="45.7051772" lon="9.6605572"><ele>373.0</ele><time>2026-03-26T15:01:26.261Z</time></trkpt><trkpt lat="45.7051481" lon="9.6606497"><ele>374.0</ele><time>2026-03-26T15:01:32.258Z</time></trkpt><trkpt lat="45.7051164" lon="9.6607341"><ele>375.0</ele><time>2026-03-26T15:01:38.282Z</time></trkpt><trkpt lat="45.7050941" lon="9.660829"><ele>376.0</ele><time>2026-03-26T15:01:46.259Z</time></trkpt><trkpt lat="45.7050197" lon="9.6609854"><ele>376.0</ele><time>2026-03-26T15:02:46.274Z</time></trkpt><trkpt lat="45.7049774" lon="9.661056"><ele>376.0</ele><time>2026-03-26T15:02:48.251Z</time></trkpt><trkpt lat="45.7049427" lon="9.6611376"><ele>376.0</ele><time>2026-03-26T15:02:52.24Z</time></trkpt><trkpt lat="45.7049116" lon="9.6612178"><ele>376.0</ele><time>2026-03-26T15:02:56.26Z</time></trkpt><trkpt lat="45.7048772" lon="9.6613126"><ele>376.0</ele><time>2026-03-26T15:03:01.238Z</time></trkpt><trkpt lat="45.7048546" lon="9.6614114"><ele>376.0</ele><time>2026-03-26T15:03:05.254Z</time></trkpt><trkpt lat="45.7048282" lon="9.6615107"><ele>376.0</ele><time>2026-03-26T15:03:10.253Z</time></trkpt><trkpt lat="45.704806" lon="9.6615996"><ele>375.8333333333333</ele><time>2026-03-26T15:03:15.281Z</time></trkpt><trkpt lat="45.7047842" lon="9.6616846"><ele>375.66666666666663</ele><time>2026-03-26T15:03:20.269Z</time></trkpt><trkpt lat="45.7047562" lon="9.6617711"><ele>375.5</ele><time>2026-03-26T15:03:26.268Z</time></trkpt><trkpt lat="45.7047206" lon="9.6618793"><ele>375.3333333333333</ele><time>2026-03-26T15:03:31.254Z</time></trkpt><trkpt lat="45.7046894" lon="9.6619821"><ele>375.1666666666667</ele><time>2026-03-26T15:03:35.263Z</time></trkpt><trkpt lat="45.7046569" lon="9.6620714"><ele>375.0</ele><time>2026-03-26T15:03:40.255Z</time></trkpt><trkpt lat="45.7047599" lon="9.6620624"><ele>374.2857142857143</ele><time>2026-03-26T15:04:02.259Z</time></trkpt><trkpt lat="45.7046752" lon="9.6620345"><ele>373.57142857142856</ele><time>2026-03-26T15:04:13.263Z</time></trkpt><trkpt lat="45.7046457" lon="9.6621343"><ele>372.85714285714283</ele><time>2026-03-26T15:04:20.221Z</time></trkpt><trkpt lat="45.7046176" lon="9.6622245"><ele>372.1428571428571</ele><time>2026-03-26T15:04:57.26Z</time></trkpt><trkpt lat="45.7045873" lon="9.6623221"><ele>371.42857142857144</ele><time>2026-03-26T15:04:59.261Z</time></trkpt><trkpt lat="45.7045645" lon="9.6624148"><ele>370.71428571428567</ele><time>2026-03-26T15:05:01.26Z</time></trkpt><trkpt lat="45.7045379" lon="9.6625064"><ele>370.0</ele><time>2026-03-26T15:05:07.215Z</time></trkpt><trkpt lat="45.7044827" lon="9.6625936"><ele>370.0</ele><time>2026-03-26T15:05:34.211Z</time></trkpt><trkpt lat="45.70443" lon="9.6627008"><ele>370.0</ele><time>2026-03-26T15:05:45.259Z</time></trkpt><trkpt lat="45.7044004" lon="9.6628123"><ele>370.0</ele><time>2026-03-26T15:05:51.266Z</time></trkpt><trkpt lat="45.7043852" lon="9.6629049"><ele>370.0</ele><time>2026-03-26T15:06:00.258Z</time></trkpt><trkpt lat="45.7043565" lon="9.6629932"><ele>370.0</ele><time>2026-03-26T15:06:10.264Z</time></trkpt><trkpt lat="45.7043008" lon="9.663081"><ele>370.0</ele><time>2026-03-26T15:06:16.26Z</time></trkpt><trkpt lat="45.7042123" lon="9.6632086"><ele>369.99999999999994</ele><time>2026-03-26T15:07:55.257Z</time></trkpt><trkpt lat="45.7041544" lon="9.6632471"><ele>370.0</ele><time>2026-03-26T15:08:12.274Z</time></trkpt><trkpt lat="45.7041114" lon="9.6633193"><ele>370.0</ele><time>2026-03-26T15:08:17.246Z</time></trkpt><trkpt lat="45.7040718" lon="9.6634004"><ele>370.0</ele><time>2026-03-26T15:08:25.261Z</time></trkpt><trkpt lat="45.7040276" lon="9.6634719"><ele>370.0</ele><time>2026-03-26T15:08:36.271Z</time></trkpt><trkpt lat="45.7039874" lon="9.6635503"><ele>369.99999999999994</ele><time>2026-03-26T15:08:51.258Z</time></trkpt><trkpt lat="45.703926" lon="9.6636088"><ele>370.0</ele><time>2026-03-26T15:08:57.253Z</time></trkpt><trkpt lat="45.7038856" lon="9.6637047"><ele>369.99999999999994</ele><time>2026-03-26T15:09:25.252Z</time></trkpt><trkpt lat="45.7038484" lon="9.6637892"><ele>370.0</ele><time>2026-03-26T15:09:33.237Z</time></trkpt><trkpt lat="45.7038204" lon="9.6638736"><ele>370.0</ele><time>2026-03-26T15:09:37.256Z</time></trkpt><trkpt lat="45.7038034" lon="9.6639614"><ele>370.0</ele><time>2026-03-26T15:09:49.134Z</time></trkpt><trkpt lat="45.7037722" lon="9.6640442"><ele>370.0</ele><time>2026-03-26T15:09:52.734Z</time></trkpt><trkpt lat="45.703741" lon="9.6641324"><ele>369.99999999999994</ele><time>2026-03-26T15:09:57.256Z</time></trkpt><trkpt lat="45.7037178" lon="9.6642221"><ele>370.0</ele><time>2026-03-26T15:10:04.287Z</time></trkpt><trkpt lat="45.7036435" lon="9.6643126"><ele>369.99999999999994</ele><time>2026-03-26T15:10:46.261Z</time></trkpt><trkpt lat="45.7036132" lon="9.6643989"><ele>370.0</ele><time>2026-03-26T15:10:53.253Z</time></trkpt><trkpt lat="45.7035821" lon="9.6644965"><ele>370.0</ele><time>2026-03-26T15:10:59.265Z</time></trkpt><trkpt lat="45.7035478" lon="9.6645788"><ele>370.0</ele><time>2026-03-26T15:11:04.264Z</time></trkpt><trkpt lat="45.7035133" lon="9.6646551"><ele>370.0</ele><time>2026-03-26T15:11:11.259Z</time></trkpt><trkpt lat="45.7034754" lon="9.6647475"><ele>369.99999999999994</ele><time>2026-03-26T15:11:15.271Z</time></trkpt><trkpt lat="45.7035488" lon="9.6647523"><ele>370.0</ele><time>2026-03-26T15:12:29.267Z</time></trkpt><trkpt lat="45.7034736" lon="9.6649259"><ele>369.66666666666663</ele><time>2026-03-26T15:14:27.723Z</time></trkpt><trkpt lat="45.7034058" lon="9.6649193"><ele>369.3333333333333</ele><time>2026-03-26T15:18:05.287Z</time></trkpt><trkpt lat="45.7033588" lon="9.6649981"><ele>369.0</ele><time>2026-03-26T15:18:12.256Z</time></trkpt><trkpt lat="45.7032997" lon="9.665062"><ele>368.6666666666667</ele><time>2026-03-26T15:18:40.262Z</time></trkpt><trkpt lat="45.7032351" lon="9.6650342"><ele>368.33333333333337</ele><time>2026-03-26T15:20:59.267Z</time></trkpt><trkpt lat="45.7031601" lon="9.6650568"><ele>368.0</ele><time>2026-03-26T15:22:21.258Z</time></trkpt><trkpt lat="45.7033155" lon="9.6651003"><ele>368.0</ele><time>2026-03-26T15:26:20.261Z</time></trkpt><trkpt lat="45.7032708" lon="9.6651651"><ele>368.0</ele><time>2026-03-26T15:26:25.221Z</time></trkpt><trkpt lat="45.7032109" lon="9.665271"><ele>368.0</ele><time>2026-03-26T15:26:29.273Z</time></trkpt><trkpt lat="45.7031421" lon="9.6653007"><ele>368.0</ele><time>2026-03-26T15:26:34.271Z</time></trkpt><trkpt lat="45.7031361" lon="9.6652072"><ele>368.0</ele><time>2026-03-26T15:26:43.269Z</time></trkpt><trkpt lat="45.7031004" lon="9.6650986"><ele>368.0</ele><time>2026-03-26T15:26:54.198Z</time></trkpt><trkpt lat="45.7030332" lon="9.6650765"><ele>368.0</ele><time>2026-03-26T15:27:03.264Z</time></trkpt><trkpt lat="45.7029632" lon="9.6650552"><ele>368.0</ele><time>2026-03-26T15:27:08.264Z</time></trkpt><trkpt lat="45.7028905" lon="9.6650589"><ele>368.0</ele><time>2026-03-26T15:27:16.27Z</time></trkpt><trkpt lat="45.7028541" lon="9.6649801"><ele>368.0</ele><time>2026-03-26T15:27:21.233Z</time></trkpt><trkpt lat="45.7027986" lon="9.6649062"><ele>368.0</ele><time>2026-03-26T15:27:25.196Z</time></trkpt><trkpt lat="45.7027507" lon="9.664826"><ele>368.0</ele><time>2026-03-26T15:27:30.041Z</time></trkpt><trkpt lat="45.7027042" lon="9.6647472"><ele>368.0</ele><time>2026-03-26T15:27:34.021Z</time></trkpt><trkpt lat="45.7026661" lon="9.6646562"><ele>368.0</ele><time>2026-03-26T15:27:38.995Z</time></trkpt><trkpt lat="45.7026191" lon="9.6645903"><ele>366.8571428571429</ele><time>2026-03-26T15:27:42.997Z</time></trkpt><trkpt lat="45.7025909" lon="9.6644977"><ele>365.71428571428567</ele><time>2026-03-26T15:27:46.956Z</time></trkpt><trkpt lat="45.7025544" lon="9.6644007"><ele>364.57142857142856</ele><time>2026-03-26T15:27:51.798Z</time></trkpt><trkpt lat="45.7025261" lon="9.6642943"><ele>363.42857142857144</ele><time>2026-03-26T15:27:55.635Z</time></trkpt><trkpt lat="45.7025101" lon="9.6642009"><ele>362.28571428571433</ele><time>2026-03-26T15:27:59.495Z</time></trkpt><trkpt lat="45.7024929" lon="9.664107"><ele>361.1428571428571</ele><time>2026-03-26T15:28:04.335Z</time></trkpt><trkpt lat="45.7024783" lon="9.6640001"><ele>360.0</ele><time>2026-03-26T15:28:10.232Z</time></trkpt><trkpt lat="45.7024635" lon="9.663907"><ele>360.0</ele><time>2026-03-26T15:28:15.11Z</time></trkpt><trkpt lat="45.702448" lon="9.6638075"><ele>360.0</ele><time>2026-03-26T15:28:22.059Z</time></trkpt><trkpt lat="45.7024349" lon="9.663713"><ele>360.0</ele><time>2026-03-26T15:28:27.915Z</time></trkpt><trkpt lat="45.7024206" lon="9.663615"><ele>360.0</ele><time>2026-03-26T15:28:32.796Z</time></trkpt><trkpt lat="45.7024035" lon="9.6635149"><ele>360.0</ele><time>2026-03-26T15:28:39.577Z</time></trkpt><trkpt lat="45.7023647" lon="9.663441"><ele>360.0</ele><time>2026-03-26T15:28:44.556Z</time></trkpt><trkpt lat="45.7023006" lon="9.6633831"><ele>360.0</ele><time>2026-03-26T15:28:49.464Z</time></trkpt><trkpt lat="45.7022184" lon="9.6633732"><ele>361.4285714285714</ele><time>2026-03-26T15:28:53.392Z</time></trkpt><trkpt lat="45.7021562" lon="9.6633469"><ele>362.8571428571429</ele><time>2026-03-26T15:28:57.454Z</time></trkpt><trkpt lat="45.702099" lon="9.6632881"><ele>364.2857142857143</ele><time>2026-03-26T15:29:02.338Z</time></trkpt><trkpt lat="45.7020412" lon="9.6632402"><ele>365.71428571428567</ele><time>2026-03-26T15:29:07.312Z</time></trkpt><trkpt lat="45.7019686" lon="9.6632111"><ele>367.1428571428571</ele><time>2026-03-26T15:29:12.123Z</time></trkpt><trkpt lat="45.7019072" lon="9.6631749"><ele>368.57142857142856</ele><time>2026-03-26T15:29:16.951Z</time></trkpt><trkpt lat="45.7018502" lon="9.6631349"><ele>370.0</ele><time>2026-03-26T15:29:21.831Z</time></trkpt><trkpt lat="45.7017887" lon="9.6630977"><ele>366.4285714285714</ele><time>2026-03-26T15:29:26.735Z</time></trkpt><trkpt lat="45.7017279" lon="9.6630694"><ele>362.85714285714283</ele><time>2026-03-26T15:29:31.698Z</time></trkpt><trkpt lat="45.7016664" lon="9.6630174"><ele>359.2857142857143</ele><time>2026-03-26T15:29:36.557Z</time></trkpt><trkpt lat="45.7016028" lon="9.6630063"><ele>355.71428571428567</ele><time>2026-03-26T15:29:40.493Z</time></trkpt><trkpt lat="45.7015394" lon="9.6630033"><ele>352.1428571428571</ele><time>2026-03-26T15:29:45.52Z</time></trkpt><trkpt lat="45.7014751" lon="9.6630132"><ele>348.57142857142856</ele><time>2026-03-26T15:29:50.594Z</time></trkpt><trkpt lat="45.7014632" lon="9.6631181"><ele>345.0</ele><time>2026-03-26T15:29:54.836Z</time></trkpt><trkpt lat="45.7015015" lon="9.6632162"><ele>345.0</ele><time>2026-03-26T15:29:59.151Z</time></trkpt><trkpt lat="45.7015008" lon="9.6633219"><ele>345.0</ele><time>2026-03-26T15:30:06.266Z</time></trkpt><trkpt lat="45.7014468" lon="9.6633925"><ele>345.0</ele><time>2026-03-26T15:30:12.272Z</time></trkpt><trkpt lat="45.7015107" lon="9.6633637"><ele>345.0</ele><time>2026-03-26T15:30:58.269Z</time></trkpt><trkpt lat="45.7015245" lon="9.6634599"><ele>345.0</ele><time>2026-03-26T15:31:02.272Z</time></trkpt><trkpt lat="45.7015848" lon="9.6635157"><ele>345.0</ele><time>2026-03-26T15:31:48.263Z</time></trkpt><trkpt lat="45.7016166" lon="9.6636111"><ele>345.0</ele><time>2026-03-26T15:31:53.45Z</time></trkpt><trkpt lat="45.7016625" lon="9.6636828"><ele>347.14285714285717</ele><time>2026-03-26T15:31:58.049Z</time></trkpt><trkpt lat="45.7016797" lon="9.6637779"><ele>349.2857142857143</ele><time>2026-03-26T15:32:07.255Z</time></trkpt><trkpt lat="45.7017299" lon="9.6638388"><ele>351.42857142857144</ele><time>2026-03-26T15:32:11.267Z</time></trkpt><trkpt lat="45.7017682" lon="9.6639126"><ele>353.57142857142856</ele><time>2026-03-26T15:32:16.262Z</time></trkpt><trkpt lat="45.7018151" lon="9.6639745"><ele>355.7142857142857</ele><time>2026-03-26T15:32:20.271Z</time></trkpt><trkpt lat="45.701864" lon="9.6640536"><ele>357.85714285714283</ele><time>2026-03-26T15:32:26.258Z</time></trkpt><trkpt lat="45.7019011" lon="9.6641472"><ele>360.0</ele><time>2026-03-26T15:32:31.275Z</time></trkpt><trkpt lat="45.7019282" lon="9.6642434"><ele>360.0</ele><time>2026-03-26T15:32:36.262Z</time></trkpt><trkpt lat="45.7019331" lon="9.6643372"><ele>360.0</ele><time>2026-03-26T15:32:41.257Z</time></trkpt><trkpt lat="45.7018768" lon="9.6643986"><ele>360.0</ele><time>2026-03-26T15:32:45.263Z</time></trkpt><trkpt lat="45.701863" lon="9.6644876"><ele>360.0</ele><time>2026-03-26T15:32:49.257Z</time></trkpt><trkpt lat="45.7019009" lon="9.6645722"><ele>360.0</ele><time>2026-03-26T15:32:53.256Z</time></trkpt><trkpt lat="45.7019477" lon="9.6646471"><ele>360.0</ele><time>2026-03-26T15:32:58.262Z</time></trkpt><trkpt lat="45.7019624" lon="9.6647518"><ele>360.0</ele><time>2026-03-26T15:33:03.252Z</time></trkpt><trkpt lat="45.7019833" lon="9.6648482"><ele>358.7142857142857</ele><time>2026-03-26T15:33:08.248Z</time></trkpt><trkpt lat="45.7020089" lon="9.6649352"><ele>357.42857142857144</ele><time>2026-03-26T15:33:13.257Z</time></trkpt><trkpt lat="45.7020296" lon="9.6650241"><ele>356.14285714285717</ele><time>2026-03-26T15:33:18.249Z</time></trkpt><trkpt lat="45.7020473" lon="9.6651117"><ele>354.8571428571429</ele><time>2026-03-26T15:33:23.248Z</time></trkpt><trkpt lat="45.7020882" lon="9.665188"><ele>353.57142857142856</ele><time>2026-03-26T15:33:28.255Z</time></trkpt><trkpt lat="45.7021094" lon="9.6652905"><ele>352.28571428571433</ele><time>2026-03-26T15:33:34.262Z</time></trkpt><trkpt lat="45.7021226" lon="9.6653922"><ele>351.0</ele><time>2026-03-26T15:33:39.26Z</time></trkpt><trkpt lat="45.7021605" lon="9.665472"><ele>349.14285714285717</ele><time>2026-03-26T15:33:45.241Z</time></trkpt><trkpt lat="45.7021814" lon="9.6655666"><ele>347.2857142857143</ele><time>2026-03-26T15:33:51.263Z</time></trkpt><trkpt lat="45.7022091" lon="9.6656618"><ele>345.42857142857144</ele><time>2026-03-26T15:33:57.249Z</time></trkpt><trkpt lat="45.7022178" lon="9.6657568"><ele>343.57142857142856</ele><time>2026-03-26T15:34:03.182Z</time></trkpt><trkpt lat="45.7021742" lon="9.6658444"><ele>341.7142857142857</ele><time>2026-03-26T15:34:08.263Z</time></trkpt><trkpt lat="45.7021971" lon="9.6659345"><ele>339.8571428571429</ele><time>2026-03-26T15:34:12.249Z</time></trkpt><trkpt lat="45.7022113" lon="9.6660262"><ele>338.0</ele><time>2026-03-26T15:34:16.249Z</time></trkpt><trkpt lat="45.7022389" lon="9.6661075"><ele>335.8571428571429</ele><time>2026-03-26T15:34:20.205Z</time></trkpt><trkpt lat="45.7022559" lon="9.6662029"><ele>333.7142857142857</ele><time>2026-03-26T15:34:24.254Z</time></trkpt><trkpt lat="45.7022793" lon="9.6663036"><ele>331.57142857142856</ele><time>2026-03-26T15:34:29.243Z</time></trkpt><trkpt lat="45.7023002" lon="9.6663923"><ele>329.42857142857144</ele><time>2026-03-26T15:34:34.224Z</time></trkpt><trkpt lat="45.7023282" lon="9.6664862"><ele>327.2857142857143</ele><time>2026-03-26T15:34:39.255Z</time></trkpt><trkpt lat="45.7023437" lon="9.666574"><ele>325.14285714285717</ele><time>2026-03-26T15:34:43.261Z</time></trkpt><trkpt lat="45.7023632" lon="9.6666671"><ele>323.0</ele><time>2026-03-26T15:34:48.157Z</time></trkpt><trkpt lat="45.7023848" lon="9.6667583"><ele>323.00000000000006</ele><time>2026-03-26T15:34:53.257Z</time></trkpt><trkpt lat="45.7024015" lon="9.6668539"><ele>323.0</ele><time>2026-03-26T15:34:58.258Z</time></trkpt><trkpt lat="45.7024189" lon="9.6669505"><ele>323.0</ele><time>2026-03-26T15:35:03.251Z</time></trkpt><trkpt lat="45.7024329" lon="9.6670477"><ele>323.0</ele><time>2026-03-26T15:35:08.254Z</time></trkpt><trkpt lat="45.7024572" lon="9.6671506"><ele>323.0</ele><time>2026-03-26T15:35:13.254Z</time></trkpt><trkpt lat="45.7025014" lon="9.6672201"><ele>323.00000000000006</ele><time>2026-03-26T15:35:18.098Z</time></trkpt><trkpt lat="45.7025729" lon="9.6672521"><ele>323.0</ele><time>2026-03-26T15:35:23.253Z</time></trkpt><trkpt lat="45.7026445" lon="9.6672139"><ele>321.42857142857144</ele><time>2026-03-26T15:35:28.259Z</time></trkpt><trkpt lat="45.7026956" lon="9.6672939"><ele>319.8571428571429</ele><time>2026-03-26T15:35:34.258Z</time></trkpt><trkpt lat="45.7027204" lon="9.6673934"><ele>318.28571428571433</ele><time>2026-03-26T15:35:39.257Z</time></trkpt><trkpt lat="45.7027442" lon="9.6674966"><ele>316.7142857142857</ele><time>2026-03-26T15:35:44.264Z</time></trkpt><trkpt lat="45.7027779" lon="9.6675764"><ele>315.1428571428571</ele><time>2026-03-26T15:35:49.261Z</time></trkpt><trkpt lat="45.7027941" lon="9.6676855"><ele>313.5714285714286</ele><time>2026-03-26T15:35:54.257Z</time></trkpt><trkpt lat="45.7028037" lon="9.6677868"><ele>312.0</ele><time>2026-03-26T15:35:59.176Z</time></trkpt><trkpt lat="45.7028198" lon="9.6678788"><ele>315.14285714285717</ele><time>2026-03-26T15:36:04.244Z</time></trkpt><trkpt lat="45.7028374" lon="9.6679835"><ele>318.2857142857143</ele><time>2026-03-26T15:36:09.255Z</time></trkpt><trkpt lat="45.7028529" lon="9.6680877"><ele>321.42857142857144</ele><time>2026-03-26T15:36:14.273Z</time></trkpt><trkpt lat="45.7028676" lon="9.6681764"><ele>324.57142857142856</ele><time>2026-03-26T15:36:18.269Z</time></trkpt><trkpt lat="45.7028884" lon="9.6682845"><ele>327.7142857142857</ele><time>2026-03-26T15:36:23.299Z</time></trkpt><trkpt lat="45.7029" lon="9.6683878"><ele>330.85714285714283</ele><time>2026-03-26T15:36:28.161Z</time></trkpt><trkpt lat="45.7029052" lon="9.6684912"><ele>334.0</ele><time>2026-03-26T15:36:32.888Z</time></trkpt><trkpt lat="45.702917" lon="9.6685882"><ele>332.85714285714283</ele><time>2026-03-26T15:36:37.085Z</time></trkpt><trkpt lat="45.7029314" lon="9.668698"><ele>331.7142857142857</ele><time>2026-03-26T15:36:40.924Z</time></trkpt><trkpt lat="45.702939" lon="9.6687915"><ele>330.57142857142856</ele><time>2026-03-26T15:36:45.162Z</time></trkpt><trkpt lat="45.702942" lon="9.6688918"><ele>329.42857142857144</ele><time>2026-03-26T15:36:49.263Z</time></trkpt><trkpt lat="45.7029508" lon="9.6690011"><ele>328.2857142857143</ele><time>2026-03-26T15:36:55.12Z</time></trkpt><trkpt lat="45.7029616" lon="9.6690994"><ele>327.14285714285717</ele><time>2026-03-26T15:37:00.323Z</time></trkpt><trkpt lat="45.7029702" lon="9.6692038"><ele>326.0</ele><time>2026-03-26T15:37:05.184Z</time></trkpt><trkpt lat="45.7029811" lon="9.6692959"><ele>326.0</ele><time>2026-03-26T15:37:09.271Z</time></trkpt><trkpt lat="45.7029876" lon="9.6693886"><ele>326.0</ele><time>2026-03-26T15:37:13.244Z</time></trkpt><trkpt lat="45.7029966" lon="9.6694837"><ele>326.0</ele><time>2026-03-26T15:37:17.002Z</time></trkpt><trkpt lat="45.7030074" lon="9.6695776"><ele>326.0</ele><time>2026-03-26T15:37:21.275Z</time></trkpt><trkpt lat="45.7030223" lon="9.6696788"><ele>326.0</ele><time>2026-03-26T15:37:26.262Z</time></trkpt><trkpt lat="45.7030362" lon="9.6697692"><ele>326.0</ele><time>2026-03-26T15:37:30.242Z</time></trkpt><trkpt lat="45.7030489" lon="9.669874"><ele>326.0</ele><time>2026-03-26T15:37:35.259Z</time></trkpt><trkpt lat="45.7030626" lon="9.6699822"><ele>325.2857142857143</ele><time>2026-03-26T15:37:40.24Z</time></trkpt><trkpt lat="45.7030759" lon="9.67009"><ele>324.57142857142856</ele><time>2026-03-26T15:37:45.263Z</time></trkpt><trkpt lat="45.70309" lon="9.6701983"><ele>323.85714285714283</ele><time>2026-03-26T15:37:50.15Z</time></trkpt><trkpt lat="45.7031029" lon="9.6703075"><ele>323.1428571428571</ele><time>2026-03-26T15:37:55.292Z</time></trkpt><trkpt lat="45.7031047" lon="9.6704084"><ele>322.42857142857144</ele><time>2026-03-26T15:38:00.202Z</time></trkpt><trkpt lat="45.7031108" lon="9.6705049"><ele>321.71428571428567</ele><time>2026-03-26T15:38:04.281Z</time></trkpt><trkpt lat="45.7031193" lon="9.6706125"><ele>321.0</ele><time>2026-03-26T15:38:09.148Z</time></trkpt><trkpt lat="45.7031268" lon="9.6707027"><ele>320.2857142857143</ele><time>2026-03-26T15:38:12.905Z</time></trkpt><trkpt lat="45.7031304" lon="9.670801"><ele>319.57142857142856</ele><time>2026-03-26T15:38:17.289Z</time></trkpt><trkpt lat="45.7031453" lon="9.670903"><ele>318.8571428571429</ele><time>2026-03-26T15:38:22.259Z</time></trkpt><trkpt lat="45.7031666" lon="9.671006"><ele>318.1428571428571</ele><time>2026-03-26T15:38:27.253Z</time></trkpt><trkpt lat="45.7031953" lon="9.6710962"><ele>317.42857142857144</ele><time>2026-03-26T15:38:32.206Z</time></trkpt><trkpt lat="45.7032234" lon="9.6711864"><ele>316.7142857142857</ele><time>2026-03-26T15:38:38.225Z</time></trkpt><trkpt lat="45.7032555" lon="9.6712746"><ele>316.0</ele><time>2026-03-26T15:38:43.223Z</time></trkpt><trkpt lat="45.7032937" lon="9.6713607"><ele>314.7142857142857</ele><time>2026-03-26T15:38:48.203Z</time></trkpt><trkpt lat="45.703341" lon="9.6714231"><ele>313.42857142857144</ele><time>2026-03-26T15:38:53.263Z</time></trkpt><trkpt lat="45.7033892" lon="9.6714846"><ele>312.1428571428571</ele><time>2026-03-26T15:38:58.274Z</time></trkpt><trkpt lat="45.7034386" lon="9.6715405"><ele>310.8571428571429</ele><time>2026-03-26T15:39:03.268Z</time></trkpt><trkpt lat="45.7034893" lon="9.6715982"><ele>309.57142857142856</ele><time>2026-03-26T15:39:08.258Z</time></trkpt><trkpt lat="45.7035525" lon="9.6716469"><ele>308.2857142857143</ele><time>2026-03-26T15:39:13.182Z</time></trkpt><trkpt lat="45.7036186" lon="9.6716821"><ele>307.0</ele><time>2026-03-26T15:39:19.26Z</time></trkpt><trkpt lat="45.7036829" lon="9.6717153"><ele>306.99999999999994</ele><time>2026-03-26T15:39:25.26Z</time></trkpt><trkpt lat="45.7037522" lon="9.6717074"><ele>307.0</ele><time>2026-03-26T15:39:31.252Z</time></trkpt><trkpt lat="45.7038174" lon="9.6717152"><ele>307.0</ele><time>2026-03-26T15:39:36.258Z</time></trkpt><trkpt lat="45.7038842" lon="9.6717507"><ele>307.0</ele><time>2026-03-26T15:39:41.261Z</time></trkpt><trkpt lat="45.7039257" lon="9.6718205"><ele>307.0</ele><time>2026-03-26T15:39:46.262Z</time></trkpt><trkpt lat="45.7040232" lon="9.6717837"><ele>306.99999999999994</ele><time>2026-03-26T15:39:51.249Z</time></trkpt><trkpt lat="45.7040958" lon="9.6717728"><ele>307.0</ele><time>2026-03-26T15:39:56.259Z</time></trkpt><trkpt lat="45.7041471" lon="9.6718403"><ele>306.99999999999994</ele><time>2026-03-26T15:40:02.262Z</time></trkpt><trkpt lat="45.7041771" lon="9.6719265"><ele>307.0</ele><time>2026-03-26T15:40:08.256Z</time></trkpt><trkpt lat="45.7041991" lon="9.6720286"><ele>307.0</ele><time>2026-03-26T15:40:15.242Z</time></trkpt><trkpt lat="45.7041962" lon="9.672128"><ele>307.0</ele><time>2026-03-26T15:40:21.298Z</time></trkpt><trkpt lat="45.7041611" lon="9.6722088"><ele>307.0</ele><time>2026-03-26T15:40:25.275Z</time></trkpt><trkpt lat="45.7041209" lon="9.6723056"><ele>306.99999999999994</ele><time>2026-03-26T15:40:30.181Z</time></trkpt><trkpt lat="45.7040662" lon="9.6723952"><ele>307.0</ele><time>2026-03-26T15:40:35.258Z</time></trkpt><trkpt lat="45.7039946" lon="9.6724248"><ele>305.57142857142856</ele><time>2026-03-26T15:40:38.251Z</time></trkpt><trkpt lat="45.7039327" lon="9.6724752"><ele>304.1428571428571</ele><time>2026-03-26T15:40:42.257Z</time></trkpt><trkpt lat="45.7038755" lon="9.6725328"><ele>302.7142857142857</ele><time>2026-03-26T15:40:46.26Z</time></trkpt><trkpt lat="45.7038029" lon="9.6725586"><ele>301.2857142857143</ele><time>2026-03-26T15:40:50.256Z</time></trkpt><trkpt lat="45.703735" lon="9.6725982"><ele>299.8571428571429</ele><time>2026-03-26T15:40:54.282Z</time></trkpt><trkpt lat="45.7036765" lon="9.6726497"><ele>298.42857142857144</ele><time>2026-03-26T15:40:59.21Z</time></trkpt><trkpt lat="45.7036469" lon="9.6727338"><ele>297.0</ele><time>2026-03-26T15:41:03.16Z</time></trkpt><trkpt lat="45.7036797" lon="9.6728268"><ele>296.0</ele><time>2026-03-26T15:41:07.265Z</time></trkpt><trkpt lat="45.7037474" lon="9.6728578"><ele>295.0</ele><time>2026-03-26T15:41:11.285Z</time></trkpt><trkpt lat="45.7038084" lon="9.6728968"><ele>294.0</ele><time>2026-03-26T15:41:16.257Z</time></trkpt><trkpt lat="45.7038789" lon="9.6729416"><ele>293.0</ele><time>2026-03-26T15:41:21.26Z</time></trkpt><trkpt lat="45.7039412" lon="9.6729921"><ele>292.0</ele><time>2026-03-26T15:41:26.16Z</time></trkpt><trkpt lat="45.7039946" lon="9.6730597"><ele>291.0</ele><time>2026-03-26T15:41:31.267Z</time></trkpt><trkpt lat="45.7040495" lon="9.6731296"><ele>290.0</ele><time>2026-03-26T15:41:36.265Z</time></trkpt><trkpt lat="45.7040965" lon="9.6732076"><ele>290.0</ele><time>2026-03-26T15:41:41.261Z</time></trkpt><trkpt lat="45.7041346" lon="9.6732897"><ele>290.0</ele><time>2026-03-26T15:41:46.204Z</time></trkpt><trkpt lat="45.7041501" lon="9.6733942"><ele>290.0</ele><time>2026-03-26T15:41:51.177Z</time></trkpt><trkpt lat="45.7041464" lon="9.6734973"><ele>290.0</ele><time>2026-03-26T15:41:56.245Z</time></trkpt><trkpt lat="45.7041454" lon="9.6735928"><ele>290.0</ele><time>2026-03-26T15:42:00.273Z</time></trkpt><trkpt lat="45.7041507" lon="9.6736862"><ele>290.0</ele><time>2026-03-26T15:42:05.263Z</time></trkpt><trkpt lat="45.7041547" lon="9.6737918"><ele>290.0</ele><time>2026-03-26T15:42:10.257Z</time></trkpt><trkpt lat="45.7041565" lon="9.6738926"><ele>288.8571428571429</ele><time>2026-03-26T15:42:15.282Z</time></trkpt><trkpt lat="45.7041579" lon="9.6740017"><ele>287.7142857142857</ele><time>2026-03-26T15:42:20.239Z</time></trkpt><trkpt lat="45.7041642" lon="9.6740931"><ele>286.57142857142856</ele><time>2026-03-26T15:42:24.257Z</time></trkpt><trkpt lat="45.7041671" lon="9.6742037"><ele>285.42857142857144</ele><time>2026-03-26T15:42:29.264Z</time></trkpt><trkpt lat="45.7041713" lon="9.6742945"><ele>284.2857142857143</ele><time>2026-03-26T15:42:33.255Z</time></trkpt><trkpt lat="45.7041783" lon="9.6744051"><ele>283.14285714285717</ele><time>2026-03-26T15:42:38.268Z</time></trkpt><trkpt lat="45.7041872" lon="9.6745127"><ele>282.0</ele><time>2026-03-26T15:42:43.286Z</time></trkpt><trkpt lat="45.7041972" lon="9.6746274"><ele>281.0</ele><time>2026-03-26T15:42:48.262Z</time></trkpt><trkpt lat="45.7042022" lon="9.6747332"><ele>280.0</ele><time>2026-03-26T15:42:53.287Z</time></trkpt><trkpt lat="45.70421" lon="9.6748396"><ele>279.0</ele><time>2026-03-26T15:42:57.276Z</time></trkpt><trkpt lat="45.7042118" lon="9.6749381"><ele>278.0</ele><time>2026-03-26T15:43:02.267Z</time></trkpt><trkpt lat="45.7041977" lon="9.6750301"><ele>277.0</ele><time>2026-03-26T15:43:06.123Z</time></trkpt><trkpt lat="45.7041789" lon="9.6751315"><ele>276.0</ele><time>2026-03-26T15:43:10.279Z</time></trkpt><trkpt lat="45.7041523" lon="9.6752372"><ele>275.0</ele><time>2026-03-26T15:43:15.265Z</time></trkpt><trkpt lat="45.7041067" lon="9.6753038"><ele>274.2857142857143</ele><time>2026-03-26T15:43:19.163Z</time></trkpt><trkpt lat="45.7040747" lon="9.6753841"><ele>273.57142857142856</ele><time>2026-03-26T15:43:23.281Z</time></trkpt><trkpt lat="45.70404" lon="9.6754774"><ele>272.85714285714283</ele><time>2026-03-26T15:43:27.043Z</time></trkpt><trkpt lat="45.7040058" lon="9.6755628"><ele>272.1428571428571</ele><time>2026-03-26T15:43:32.261Z</time></trkpt><trkpt lat="45.7039787" lon="9.6756523"><ele>271.4285714285714</ele><time>2026-03-26T15:43:36.227Z</time></trkpt><trkpt lat="45.7039463" lon="9.6757531"><ele>270.7142857142857</ele><time>2026-03-26T15:43:41.278Z</time></trkpt><trkpt lat="45.703935" lon="9.6758584"><ele>270.0</ele><time>2026-03-26T15:43:46.308Z</time></trkpt><trkpt lat="45.7039158" lon="9.675948"><ele>270.0</ele><time>2026-03-26T15:43:50.185Z</time></trkpt><trkpt lat="45.703898" lon="9.6760583"><ele>270.0</ele><time>2026-03-26T15:43:55.109Z</time></trkpt><trkpt lat="45.7038854" lon="9.6761518"><ele>270.0</ele><time>2026-03-26T15:43:59.296Z</time></trkpt><trkpt lat="45.7038968" lon="9.6762416"><ele>270.0</ele><time>2026-03-26T15:44:03.257Z</time></trkpt><trkpt lat="45.7039054" lon="9.6763445"><ele>270.0</ele><time>2026-03-26T15:44:08.182Z</time></trkpt><trkpt lat="45.7039157" lon="9.6764549"><ele>270.0</ele><time>2026-03-26T15:44:13.102Z</time></trkpt><trkpt lat="45.7039589" lon="9.6765321"><ele>270.0</ele><time>2026-03-26T15:44:17.942Z</time></trkpt><trkpt lat="45.7039759" lon="9.6766197"><ele>269.2857142857143</ele><time>2026-03-26T15:44:23.284Z</time></trkpt><trkpt lat="45.7039872" lon="9.6767144"><ele>268.57142857142856</ele><time>2026-03-26T15:44:28.264Z</time></trkpt><trkpt lat="45.7039994" lon="9.6768109"><ele>267.85714285714283</ele><time>2026-03-26T15:44:33.262Z</time></trkpt><trkpt lat="45.7039985" lon="9.6769148"><ele>267.1428571428571</ele><time>2026-03-26T15:44:39.277Z</time></trkpt><trkpt lat="45.7039775" lon="9.6770275"><ele>266.42857142857144</ele><time>2026-03-26T15:44:44.209Z</time></trkpt><trkpt lat="45.7039696" lon="9.6771319"><ele>265.71428571428567</ele><time>2026-03-26T15:44:49.185Z</time></trkpt><trkpt lat="45.7039688" lon="9.6772429"><ele>265.0</ele><time>2026-03-26T15:44:54.279Z</time></trkpt><trkpt lat="45.7039671" lon="9.6773429"><ele>264.71428571428567</ele><time>2026-03-26T15:44:59.262Z</time></trkpt><trkpt lat="45.7039708" lon="9.6774455"><ele>264.42857142857144</ele><time>2026-03-26T15:45:04.25Z</time></trkpt><trkpt lat="45.7039842" lon="9.6775383"><ele>264.1428571428571</ele><time>2026-03-26T15:45:08.335Z</time></trkpt><trkpt lat="45.7040364" lon="9.6776084"><ele>263.85714285714283</ele><time>2026-03-26T15:45:15.27Z</time></trkpt><trkpt lat="45.7040944" lon="9.6775677"><ele>263.57142857142856</ele><time>2026-03-26T15:46:16.104Z</time></trkpt><trkpt lat="45.7041621" lon="9.6775998"><ele>263.2857142857143</ele><time>2026-03-26T15:46:22.259Z</time></trkpt><trkpt lat="45.7041158" lon="9.6777261"><ele>263.0</ele><time>2026-03-26T15:46:25.266Z</time></trkpt><trkpt lat="45.7040627" lon="9.6778114"><ele>263.0</ele><time>2026-03-26T15:46:26.227Z</time></trkpt><trkpt lat="45.7041364" lon="9.6778426"><ele>263.0</ele><time>2026-03-26T15:46:30.261Z</time></trkpt><trkpt lat="45.7042107" lon="9.6778385"><ele>263.0</ele><time>2026-03-26T15:46:34.28Z</time></trkpt><trkpt lat="45.7042876" lon="9.6778235"><ele>263.0</ele><time>2026-03-26T15:46:37.166Z</time></trkpt><trkpt lat="45.7043514" lon="9.6778399"><ele>263.0</ele><time>2026-03-26T15:46:41.003Z</time></trkpt><trkpt lat="45.7044138" lon="9.6778695"><ele>263.0</ele><time>2026-03-26T15:46:45.29Z</time></trkpt><trkpt lat="45.704473" lon="9.6779203"><ele>263.0</ele><time>2026-03-26T15:46:52.271Z</time></trkpt><trkpt lat="45.7045348" lon="9.6779702"><ele>263.0</ele><time>2026-03-26T15:46:57.255Z</time></trkpt><trkpt lat="45.7045932" lon="9.6780042"><ele>263.0</ele><time>2026-03-26T15:47:01.263Z</time></trkpt><trkpt lat="45.7046601" lon="9.678057"><ele>263.0</ele><time>2026-03-26T15:47:06.29Z</time></trkpt><trkpt lat="45.7047175" lon="9.6781138"><ele>263.0</ele><time>2026-03-26T15:47:11.088Z</time></trkpt><trkpt lat="45.7047795" lon="9.6781749"><ele>263.0</ele><time>2026-03-26T15:47:16.26Z</time></trkpt><trkpt lat="45.7048417" lon="9.6782331"><ele>263.0</ele><time>2026-03-26T15:47:21.265Z</time></trkpt><trkpt lat="45.7049066" lon="9.6783023"><ele>263.0</ele><time>2026-03-26T15:47:26.317Z</time></trkpt><trkpt lat="45.704967" lon="9.6783558"><ele>263.0</ele><time>2026-03-26T15:47:30.083Z</time></trkpt><trkpt lat="45.705031" lon="9.6784215"><ele>263.0</ele><time>2026-03-26T15:47:33.865Z</time></trkpt><trkpt lat="45.7050944" lon="9.678481"><ele>263.0</ele><time>2026-03-26T15:47:38.611Z</time></trkpt><trkpt lat="45.7051604" lon="9.6785394"><ele>263.0</ele><time>2026-03-26T15:47:43.267Z</time></trkpt><trkpt lat="45.7052139" lon="9.6785885"><ele>263.0</ele><time>2026-03-26T15:47:47.26Z</time></trkpt><trkpt lat="45.7052754" lon="9.6786369"><ele>263.0</ele><time>2026-03-26T15:47:52.152Z</time></trkpt><trkpt lat="45.7053283" lon="9.6786864"><ele>263.0</ele><time>2026-03-26T15:47:55.971Z</time></trkpt><trkpt lat="45.7053988" lon="9.6787493"><ele>263.1428571428571</ele><time>2026-03-26T15:48:00.842Z</time></trkpt><trkpt lat="45.7054541" lon="9.6788012"><ele>263.2857142857143</ele><time>2026-03-26T15:48:06.646Z</time></trkpt><trkpt lat="45.7055157" lon="9.6788751"><ele>263.42857142857144</ele><time>2026-03-26T15:48:12.001Z</time></trkpt><trkpt lat="45.7055826" lon="9.678913"><ele>263.57142857142856</ele><time>2026-03-26T15:48:15.862Z</time></trkpt><trkpt lat="45.7056424" lon="9.6789565"><ele>263.7142857142857</ele><time>2026-03-26T15:48:21.24Z</time></trkpt><trkpt lat="45.7057026" lon="9.679008"><ele>263.85714285714283</ele><time>2026-03-26T15:48:25.147Z</time></trkpt><trkpt lat="45.7057586" lon="9.6790594"><ele>264.0</ele><time>2026-03-26T15:48:29.987Z</time></trkpt><trkpt lat="45.7058209" lon="9.679122"><ele>264.0</ele><time>2026-03-26T15:48:35.039Z</time></trkpt><trkpt lat="45.7058399" lon="9.6792172"><ele>264.0</ele><time>2026-03-26T15:48:42.182Z</time></trkpt><trkpt lat="45.7059131" lon="9.6792176"><ele>264.0</ele><time>2026-03-26T15:48:46.264Z</time></trkpt><trkpt lat="45.7059857" lon="9.6792395"><ele>264.0</ele><time>2026-03-26T15:48:50.271Z</time></trkpt><trkpt lat="45.7060515" lon="9.6792944"><ele>264.0</ele><time>2026-03-26T15:48:54.269Z</time></trkpt><trkpt lat="45.7061079" lon="9.6793671"><ele>264.0</ele><time>2026-03-26T15:48:59.168Z</time></trkpt><trkpt lat="45.7061683" lon="9.6794214"><ele>264.0</ele><time>2026-03-26T15:49:04.044Z</time></trkpt><trkpt lat="45.7062325" lon="9.6794776"><ele>264.0</ele><time>2026-03-26T15:49:08.974Z</time></trkpt><trkpt lat="45.706299" lon="9.679529"><ele>264.0</ele><time>2026-03-26T15:49:14.801Z</time></trkpt><trkpt lat="45.706353" lon="9.679599"><ele>264.0</ele><time>2026-03-26T15:49:21.521Z</time></trkpt><trkpt lat="45.7064142" lon="9.6796552"><ele>264.0</ele><time>2026-03-26T15:49:26.385Z</time></trkpt><trkpt lat="45.7064844" lon="9.6797003"><ele>264.0</ele><time>2026-03-26T15:49:31.275Z</time></trkpt><trkpt lat="45.7065429" lon="9.6797494"><ele>264.0</ele><time>2026-03-26T15:49:35.263Z</time></trkpt><trkpt lat="45.706601" lon="9.6798027"><ele>264.0</ele><time>2026-03-26T15:49:39.286Z</time></trkpt><trkpt lat="45.7066522" lon="9.67986"><ele>264.0</ele><time>2026-03-26T15:49:44.263Z</time></trkpt><trkpt lat="45.7067139" lon="9.6799184"><ele>264.0</ele><time>2026-03-26T15:49:49.199Z</time></trkpt><trkpt lat="45.7067837" lon="9.6799454"><ele>264.0</ele><time>2026-03-26T15:49:54.102Z</time></trkpt><trkpt lat="45.7068448" lon="9.6799933"><ele>264.0</ele><time>2026-03-26T15:49:58.941Z</time></trkpt><trkpt lat="45.7069051" lon="9.6800525"><ele>264.0</ele><time>2026-03-26T15:50:04.26Z</time></trkpt><trkpt lat="45.7069613" lon="9.680106"><ele>264.0</ele><time>2026-03-26T15:50:09.125Z</time></trkpt><trkpt lat="45.7070329" lon="9.6801354"><ele>264.0</ele><time>2026-03-26T15:50:15.032Z</time></trkpt><trkpt lat="45.707097" lon="9.6801673"><ele>263.85714285714283</ele><time>2026-03-26T15:50:20.259Z</time></trkpt><trkpt lat="45.7071505" lon="9.6802196"><ele>263.7142857142857</ele><time>2026-03-26T15:50:24.203Z</time></trkpt><trkpt lat="45.7072138" lon="9.6802775"><ele>263.57142857142856</ele><time>2026-03-26T15:50:28.986Z</time></trkpt><trkpt lat="45.7072696" lon="9.6803256"><ele>263.42857142857144</ele><time>2026-03-26T15:50:33.288Z</time></trkpt><trkpt lat="45.707343" lon="9.680386"><ele>263.2857142857143</ele><time>2026-03-26T15:50:38.182Z</time></trkpt><trkpt lat="45.7074089" lon="9.6804469"><ele>263.1428571428571</ele><time>2026-03-26T15:50:43.082Z</time></trkpt><trkpt lat="45.7074687" lon="9.6804914"><ele>263.0</ele><time>2026-03-26T15:50:47.291Z</time></trkpt><trkpt lat="45.7075334" lon="9.6805446"><ele>263.0</ele><time>2026-03-26T15:50:52.311Z</time></trkpt><trkpt lat="45.7075892" lon="9.6805876"><ele>263.0</ele><time>2026-03-26T15:50:56.243Z</time></trkpt><trkpt lat="45.7076522" lon="9.6806229"><ele>263.0</ele><time>2026-03-26T15:51:01.147Z</time></trkpt><trkpt lat="45.7077068" lon="9.6806736"><ele>263.0</ele><time>2026-03-26T15:51:06.181Z</time></trkpt><trkpt lat="45.7077714" lon="9.6807387"><ele>263.0</ele><time>2026-03-26T15:51:09.271Z</time></trkpt><trkpt lat="45.7078276" lon="9.6807882"><ele>263.0</ele><time>2026-03-26T15:51:14.28Z</time></trkpt><trkpt lat="45.7078759" lon="9.6808615"><ele>263.0</ele><time>2026-03-26T15:51:19.287Z</time></trkpt><trkpt lat="45.7079301" lon="9.680921"><ele>263.2857142857143</ele><time>2026-03-26T15:51:24.257Z</time></trkpt><trkpt lat="45.7079903" lon="9.680961"><ele>263.57142857142856</ele><time>2026-03-26T15:51:28.264Z</time></trkpt><trkpt lat="45.7080548" lon="9.6810155"><ele>263.85714285714283</ele><time>2026-03-26T15:51:33.262Z</time></trkpt><trkpt lat="45.7081151" lon="9.6810603"><ele>264.1428571428571</ele><time>2026-03-26T15:51:38.307Z</time></trkpt><trkpt lat="45.7081821" lon="9.6811155"><ele>264.42857142857144</ele><time>2026-03-26T15:51:44.169Z</time></trkpt><trkpt lat="45.708238" lon="9.6811855"><ele>264.71428571428567</ele><time>2026-03-26T15:51:49.162Z</time></trkpt><trkpt lat="45.7083074" lon="9.6812186"><ele>265.0</ele><time>2026-03-26T15:51:56.266Z</time></trkpt><trkpt lat="45.7082855" lon="9.6811217"><ele>265.2</ele><time>2026-03-26T15:52:07.26Z</time></trkpt><trkpt lat="45.7084321" lon="9.6812145"><ele>265.4</ele><time>2026-03-26T15:52:16.169Z</time></trkpt><trkpt lat="45.7084994" lon="9.6812805"><ele>265.6</ele><time>2026-03-26T15:52:19.263Z</time></trkpt><trkpt lat="45.7085581" lon="9.6813568"><ele>265.8</ele><time>2026-03-26T15:52:23.254Z</time></trkpt><trkpt lat="45.7086262" lon="9.6814138"><ele>266.0</ele><time>2026-03-26T15:52:28.251Z</time></trkpt><trkpt lat="45.7086827" lon="9.6814691"><ele>266.0</ele><time>2026-03-26T15:52:32.267Z</time></trkpt><trkpt lat="45.7087391" lon="9.6815405"><ele>266.0</ele><time>2026-03-26T15:52:37.256Z</time></trkpt><trkpt lat="45.7087954" lon="9.6816082"><ele>266.0</ele><time>2026-03-26T15:52:42.281Z</time></trkpt><trkpt lat="45.7088501" lon="9.6816747"><ele>266.0</ele><time>2026-03-26T15:52:47.265Z</time></trkpt><trkpt lat="45.7089161" lon="9.6816927"><ele>266.0</ele><time>2026-03-26T15:52:52.257Z</time></trkpt><trkpt lat="45.7089618" lon="9.6817672"><ele>266.0</ele><time>2026-03-26T15:52:57.326Z</time></trkpt><trkpt lat="45.7089622" lon="9.681861"><ele>266.0</ele><time>2026-03-26T15:53:05.262Z</time></trkpt><trkpt lat="45.7090262" lon="9.6819169"><ele>266.42857142857144</ele><time>2026-03-26T15:53:10.259Z</time></trkpt><trkpt lat="45.7090915" lon="9.6819706"><ele>266.8571428571429</ele><time>2026-03-26T15:53:16.266Z</time></trkpt><trkpt lat="45.7091521" lon="9.682022"><ele>267.2857142857143</ele><time>2026-03-26T15:53:21.277Z</time></trkpt><trkpt lat="45.7091976" lon="9.6821045"><ele>267.7142857142857</ele><time>2026-03-26T15:53:27.279Z</time></trkpt><trkpt lat="45.7092269" lon="9.6821923"><ele>268.14285714285717</ele><time>2026-03-26T15:53:32.279Z</time></trkpt><trkpt lat="45.7092959" lon="9.6822321"><ele>268.57142857142856</ele><time>2026-03-26T15:53:37.283Z</time></trkpt><trkpt lat="45.7093622" lon="9.6822474"><ele>269.0</ele><time>2026-03-26T15:53:42.267Z</time></trkpt><trkpt lat="45.7094256" lon="9.6822667"><ele>269.2857142857143</ele><time>2026-03-26T15:53:47.267Z</time></trkpt><trkpt lat="45.7094885" lon="9.6823209"><ele>269.5714285714286</ele><time>2026-03-26T15:53:53.275Z</time></trkpt><trkpt lat="45.7095588" lon="9.6823546"><ele>269.8571428571429</ele><time>2026-03-26T15:53:57.296Z</time></trkpt><trkpt lat="45.7096132" lon="9.6824028"><ele>270.14285714285717</ele><time>2026-03-26T15:54:01.252Z</time></trkpt><trkpt lat="45.7095738" lon="9.6824759"><ele>270.42857142857144</ele><time>2026-03-26T15:54:08.269Z</time></trkpt><trkpt lat="45.7095205" lon="9.6825541"><ele>270.7142857142857</ele><time>2026-03-26T15:54:14.259Z</time></trkpt><trkpt lat="45.7094832" lon="9.6826334"><ele>271.0</ele><time>2026-03-26T15:54:18.313Z</time></trkpt><trkpt lat="45.7094211" lon="9.6826644"><ele>270.85714285714283</ele><time>2026-03-26T15:54:22.162Z</time></trkpt><trkpt lat="45.709353" lon="9.6826893"><ele>270.7142857142857</ele><time>2026-03-26T15:54:25.97Z</time></trkpt><trkpt lat="45.7092836" lon="9.6827331"><ele>270.57142857142856</ele><time>2026-03-26T15:54:30.761Z</time></trkpt><trkpt lat="45.7092223" lon="9.6827904"><ele>270.42857142857144</ele><time>2026-03-26T15:54:35.527Z</time></trkpt><trkpt lat="45.7091589" lon="9.6828534"><ele>270.2857142857143</ele><time>2026-03-26T15:54:41.28Z</time></trkpt><trkpt lat="45.7091007" lon="9.6829165"><ele>270.1428571428571</ele><time>2026-03-26T15:54:46.269Z</time></trkpt><trkpt lat="45.7090482" lon="9.6829757"><ele>270.0</ele><time>2026-03-26T15:54:50.222Z</time></trkpt><trkpt lat="45.7089868" lon="9.6830421"><ele>270.0</ele><time>2026-03-26T15:54:55.242Z</time></trkpt><trkpt lat="45.7089269" lon="9.6831044"><ele>270.0</ele><time>2026-03-26T15:55:00.297Z</time></trkpt><trkpt lat="45.7088721" lon="9.6831555"><ele>270.0</ele><time>2026-03-26T15:55:04.26Z</time></trkpt><trkpt lat="45.70881" lon="9.6832024"><ele>270.0</ele><time>2026-03-26T15:55:09.244Z</time></trkpt><trkpt lat="45.7087582" lon="9.6832751"><ele>270.0</ele><time>2026-03-26T15:55:14.272Z</time></trkpt><trkpt lat="45.7086982" lon="9.6833353"><ele>270.0</ele><time>2026-03-26T15:55:19.248Z</time></trkpt><trkpt lat="45.7086434" lon="9.6833944"><ele>270.0</ele><time>2026-03-26T15:55:23.131Z</time></trkpt><trkpt lat="45.7085897" lon="9.6834451"><ele>269.85714285714283</ele><time>2026-03-26T15:55:26.984Z</time></trkpt><trkpt lat="45.708533" lon="9.6834867"><ele>269.71428571428567</ele><time>2026-03-26T15:55:32.253Z</time></trkpt><trkpt lat="45.7084777" lon="9.6835524"><ele>269.57142857142856</ele><time>2026-03-26T15:55:38.26Z</time></trkpt><trkpt lat="45.7084266" lon="9.6836066"><ele>269.42857142857144</ele><time>2026-03-26T15:55:43.271Z</time></trkpt><trkpt lat="45.7083746" lon="9.6836606"><ele>269.28571428571433</ele><time>2026-03-26T15:55:47.256Z</time></trkpt><trkpt lat="45.7083135" lon="9.6836847"><ele>269.14285714285717</ele><time>2026-03-26T15:55:52.257Z</time></trkpt><trkpt lat="45.7082642" lon="9.6837515"><ele>269.0</ele><time>2026-03-26T15:55:57.102Z</time></trkpt><trkpt lat="45.7082199" lon="9.683829"><ele>269.0</ele><time>2026-03-26T15:56:02.259Z</time></trkpt><trkpt lat="45.7081728" lon="9.683892"><ele>269.0</ele><time>2026-03-26T15:56:07.253Z</time></trkpt><trkpt lat="45.7081144" lon="9.6839551"><ele>269.0</ele><time>2026-03-26T15:56:12.291Z</time></trkpt><trkpt lat="45.7080551" lon="9.6839956"><ele>269.0</ele><time>2026-03-26T15:56:17.258Z</time></trkpt><trkpt lat="45.7079963" lon="9.6840489"><ele>269.0</ele><time>2026-03-26T15:56:23.145Z</time></trkpt><trkpt lat="45.7079344" lon="9.6841039"><ele>269.0</ele><time>2026-03-26T15:56:29.286Z</time></trkpt><trkpt lat="45.707876" lon="9.6841774"><ele>269.0</ele><time>2026-03-26T15:56:34.277Z</time></trkpt><trkpt lat="45.7078299" lon="9.6842391"><ele>269.0</ele><time>2026-03-26T15:56:38.261Z</time></trkpt><trkpt lat="45.7077756" lon="9.6842999"><ele>269.0</ele><time>2026-03-26T15:56:42.262Z</time></trkpt><trkpt lat="45.7077263" lon="9.6843587"><ele>269.0</ele><time>2026-03-26T15:56:46.26Z</time></trkpt><trkpt lat="45.7076672" lon="9.6844194"><ele>269.0</ele><time>2026-03-26T15:56:51.279Z</time></trkpt><trkpt lat="45.7076068" lon="9.6844834"><ele>269.0</ele><time>2026-03-26T15:56:56.103Z</time></trkpt><trkpt lat="45.7075463" lon="9.6845456"><ele>269.0</ele><time>2026-03-26T15:57:00.961Z</time></trkpt><trkpt lat="45.7074831" lon="9.6846056"><ele>269.0</ele><time>2026-03-26T15:57:05.945Z</time></trkpt><trkpt lat="45.7074297" lon="9.6846634"><ele>266.0</ele><time>2026-03-26T15:57:09.866Z</time></trkpt><trkpt lat="45.7073815" lon="9.6847312"><ele>266.0</ele><time>2026-03-26T15:57:16.26Z</time></trkpt></trkseg></trk></gpx>